<?xml version="1.0" encoding="UTF-8" standalone="no" ?>
<gpx xmlns="http://www.topografix.com/GPX/1/1" xmlns:xsi="http://www.w3.org/2001/XMLSchema-instance" xsi:schemaLocation="http://www.topografix.com/GPX/1/1 http://www.topografix.com/GPX/1/1/gpx.xsd" version="1.1" creator="VisuGPX - https://www.visugpx.com">
  <metadata>
    <name>Varenne_2011</name>
    <desc><![CDATA[Varenne_2011]]></desc>
  </metadata>
  <trk>
    <name><![CDATA[ACTIVE LOG]]></name>
    <trkseg>
      <trkpt lat="47.31159" lon="-1.32011">
        <ele>56.8551025</ele>
        <time>2011-11-20T07:59:14Z</time>
      </trkpt>
      <trkpt lat="47.31157" lon="-1.32012">
        <ele>59.2584229</ele>
        <time>2011-11-20T07:59:24Z</time>
      </trkpt>
      <trkpt lat="47.31148" lon="-1.32024">
        <ele>60.7003174</ele>
        <time>2011-11-20T07:59:36Z</time>
      </trkpt>
      <trkpt lat="47.31153" lon="-1.32023">
        <ele>62.142334</ele>
        <time>2011-11-20T07:59:49Z</time>
      </trkpt>
      <trkpt lat="47.31153" lon="-1.32023">
        <ele>62.6229248</ele>
        <time>2011-11-20T07:59:50Z</time>
      </trkpt>
      <trkpt lat="47.31153" lon="-1.32028">
        <ele>63.1036377</ele>
        <time>2011-11-20T07:59:55Z</time>
      </trkpt>
      <trkpt lat="47.31167" lon="-1.32049">
        <ele>64.5456543</ele>
        <time>2011-11-20T08:00:05Z</time>
      </trkpt>
      <trkpt lat="47.31176" lon="-1.32048">
        <ele>64.5456543</ele>
        <time>2011-11-20T08:00:09Z</time>
      </trkpt>
      <trkpt lat="47.31189" lon="-1.3204">
        <ele>65.0263672</ele>
        <time>2011-11-20T08:00:14Z</time>
      </trkpt>
      <trkpt lat="47.31227" lon="-1.32091">
        <ele>65.9876709</ele>
        <time>2011-11-20T08:00:30Z</time>
      </trkpt>
      <trkpt lat="47.31238" lon="-1.32106">
        <ele>65.9876709</ele>
        <time>2011-11-20T08:00:34Z</time>
      </trkpt>
      <trkpt lat="47.31237" lon="-1.32117">
        <ele>66.9489746</ele>
        <time>2011-11-20T08:00:37Z</time>
      </trkpt>
      <trkpt lat="47.31257" lon="-1.3216">
        <ele>65.5070801</ele>
        <time>2011-11-20T08:00:48Z</time>
      </trkpt>
      <trkpt lat="47.31264" lon="-1.32165">
        <ele>65.5070801</ele>
        <time>2011-11-20T08:00:50Z</time>
      </trkpt>
      <trkpt lat="47.31287" lon="-1.32127">
        <ele>65.5070801</ele>
        <time>2011-11-20T08:01:00Z</time>
      </trkpt>
      <trkpt lat="47.31316" lon="-1.32115">
        <ele>66.9489746</ele>
        <time>2011-11-20T08:01:10Z</time>
      </trkpt>
      <trkpt lat="47.31331" lon="-1.32135">
        <ele>65.9876709</ele>
        <time>2011-11-20T08:01:15Z</time>
      </trkpt>
      <trkpt lat="47.31349" lon="-1.3215">
        <ele>65.0263672</ele>
        <time>2011-11-20T08:01:20Z</time>
      </trkpt>
      <trkpt lat="47.31395" lon="-1.32199">
        <ele>65.0263672</ele>
        <time>2011-11-20T08:01:33Z</time>
      </trkpt>
      <trkpt lat="47.31409" lon="-1.32211">
        <ele>66.4682617</ele>
        <time>2011-11-20T08:01:37Z</time>
      </trkpt>
      <trkpt lat="47.31419" lon="-1.32201">
        <ele>65.0263672</ele>
        <time>2011-11-20T08:01:41Z</time>
      </trkpt>
      <trkpt lat="47.31438" lon="-1.32136">
        <ele>62.142334</ele>
        <time>2011-11-20T08:01:51Z</time>
      </trkpt>
      <trkpt lat="47.31441" lon="-1.32114">
        <ele>59.7391357</ele>
        <time>2011-11-20T08:01:53Z</time>
      </trkpt>
      <trkpt lat="47.31444" lon="-1.32103">
        <ele>56.8551025</ele>
        <time>2011-11-20T08:01:54Z</time>
      </trkpt>
      <trkpt lat="47.31458" lon="-1.32069">
        <ele>54.932373</ele>
        <time>2011-11-20T08:01:57Z</time>
      </trkpt>
      <trkpt lat="47.31468" lon="-1.32045">
        <ele>51.0871582</ele>
        <time>2011-11-20T08:01:59Z</time>
      </trkpt>
      <trkpt lat="47.31473" lon="-1.32034">
        <ele>51.0871582</ele>
        <time>2011-11-20T08:02:00Z</time>
      </trkpt>
      <trkpt lat="47.31485" lon="-1.3201">
        <ele>52.048584</ele>
        <time>2011-11-20T08:02:04Z</time>
      </trkpt>
      <trkpt lat="47.31494" lon="-1.32014">
        <ele>52.048584</ele>
        <time>2011-11-20T08:02:08Z</time>
      </trkpt>
      <trkpt lat="47.31508" lon="-1.32027">
        <ele>50.6065674</ele>
        <time>2011-11-20T08:02:12Z</time>
      </trkpt>
      <trkpt lat="47.31515" lon="-1.32036">
        <ele>50.1259766</ele>
        <time>2011-11-20T08:02:14Z</time>
      </trkpt>
      <trkpt lat="47.31523" lon="-1.32046">
        <ele>49.1645508</ele>
        <time>2011-11-20T08:02:16Z</time>
      </trkpt>
      <trkpt lat="47.31542" lon="-1.32067">
        <ele>47.7225342</ele>
        <time>2011-11-20T08:02:20Z</time>
      </trkpt>
      <trkpt lat="47.31554" lon="-1.32074">
        <ele>44.838623</ele>
        <time>2011-11-20T08:02:23Z</time>
      </trkpt>
      <trkpt lat="47.31568" lon="-1.32059">
        <ele>42.4354248</ele>
        <time>2011-11-20T08:02:26Z</time>
      </trkpt>
      <trkpt lat="47.31588" lon="-1.32031">
        <ele>40.9934082</ele>
        <time>2011-11-20T08:02:30Z</time>
      </trkpt>
      <trkpt lat="47.31606" lon="-1.32026">
        <ele>39.5512695</ele>
        <time>2011-11-20T08:02:35Z</time>
      </trkpt>
      <trkpt lat="47.31632" lon="-1.32045">
        <ele>35.7060547</ele>
        <time>2011-11-20T08:02:45Z</time>
      </trkpt>
      <trkpt lat="47.31648" lon="-1.32056">
        <ele>32.3415527</ele>
        <time>2011-11-20T08:02:56Z</time>
      </trkpt>
      <trkpt lat="47.31658" lon="-1.32065">
        <ele>30.4188232</ele>
        <time>2011-11-20T08:03:00Z</time>
      </trkpt>
      <trkpt lat="47.31664" lon="-1.32071">
        <ele>28.4962158</ele>
        <time>2011-11-20T08:03:02Z</time>
      </trkpt>
      <trkpt lat="47.31669" lon="-1.32075">
        <ele>27.0543213</ele>
        <time>2011-11-20T08:03:04Z</time>
      </trkpt>
      <trkpt lat="47.31672" lon="-1.32076">
        <ele>24.651001</ele>
        <time>2011-11-20T08:03:19Z</time>
      </trkpt>
      <trkpt lat="47.31672" lon="-1.32076">
        <ele>24.651001</ele>
        <time>2011-11-20T08:03:34Z</time>
      </trkpt>
      <trkpt lat="47.31674" lon="-1.3208">
        <ele>23.6895752</ele>
        <time>2011-11-20T08:03:37Z</time>
      </trkpt>
      <trkpt lat="47.31677" lon="-1.32082">
        <ele>21.7669678</ele>
        <time>2011-11-20T08:03:38Z</time>
      </trkpt>
      <trkpt lat="47.31686" lon="-1.32086">
        <ele>20.3249512</ele>
        <time>2011-11-20T08:03:41Z</time>
      </trkpt>
      <trkpt lat="47.31695" lon="-1.32091">
        <ele>15.5184326</ele>
        <time>2011-11-20T08:03:43Z</time>
      </trkpt>
      <trkpt lat="47.31708" lon="-1.32099">
        <ele>13.1151123</ele>
        <time>2011-11-20T08:03:46Z</time>
      </trkpt>
      <trkpt lat="47.31715" lon="-1.32108">
        <ele>12.1538086</ele>
        <time>2011-11-20T08:03:48Z</time>
      </trkpt>
      <trkpt lat="47.31726" lon="-1.3212">
        <ele>9.2698975</ele>
        <time>2011-11-20T08:03:51Z</time>
      </trkpt>
      <trkpt lat="47.31741" lon="-1.32117">
        <ele>7.8278809</ele>
        <time>2011-11-20T08:03:56Z</time>
      </trkpt>
      <trkpt lat="47.31764" lon="-1.32051">
        <ele>6.3858643</ele>
        <time>2011-11-20T08:04:10Z</time>
      </trkpt>
      <trkpt lat="47.31793" lon="-1.31975">
        <ele>6.8664551</ele>
        <time>2011-11-20T08:04:22Z</time>
      </trkpt>
      <trkpt lat="47.31799" lon="-1.31954">
        <ele>8.3085938</ele>
        <time>2011-11-20T08:04:26Z</time>
      </trkpt>
      <trkpt lat="47.31818" lon="-1.31954">
        <ele>7.347168</ele>
        <time>2011-11-20T08:04:31Z</time>
      </trkpt>
      <trkpt lat="47.3191" lon="-1.3201">
        <ele>4.9438477</ele>
        <time>2011-11-20T08:04:47Z</time>
      </trkpt>
      <trkpt lat="47.31936" lon="-1.32017">
        <ele>4.9438477</ele>
        <time>2011-11-20T08:04:52Z</time>
      </trkpt>
      <trkpt lat="47.31951" lon="-1.32013">
        <ele>5.4245605</ele>
        <time>2011-11-20T08:04:55Z</time>
      </trkpt>
      <trkpt lat="47.31976" lon="-1.32024">
        <ele>5.4245605</ele>
        <time>2011-11-20T08:05:03Z</time>
      </trkpt>
      <trkpt lat="47.31974" lon="-1.32038">
        <ele>4.9438477</ele>
        <time>2011-11-20T08:05:06Z</time>
      </trkpt>
      <trkpt lat="47.31961" lon="-1.3208">
        <ele>6.8664551</ele>
        <time>2011-11-20T08:05:15Z</time>
      </trkpt>
      <trkpt lat="47.31947" lon="-1.32152">
        <ele>6.8664551</ele>
        <time>2011-11-20T08:05:29Z</time>
      </trkpt>
      <trkpt lat="47.3193" lon="-1.32182">
        <ele>6.3858643</ele>
        <time>2011-11-20T08:05:34Z</time>
      </trkpt>
      <trkpt lat="47.31919" lon="-1.32193">
        <ele>6.3858643</ele>
        <time>2011-11-20T08:05:37Z</time>
      </trkpt>
      <trkpt lat="47.31898" lon="-1.322">
        <ele>6.3858643</ele>
        <time>2011-11-20T08:05:42Z</time>
      </trkpt>
      <trkpt lat="47.31901" lon="-1.32212">
        <ele>4.4632568</ele>
        <time>2011-11-20T08:05:46Z</time>
      </trkpt>
      <trkpt lat="47.31911" lon="-1.32224">
        <ele>3.982666</ele>
        <time>2011-11-20T08:05:49Z</time>
      </trkpt>
      <trkpt lat="47.31918" lon="-1.32258">
        <ele>3.0212402</ele>
        <time>2011-11-20T08:05:54Z</time>
      </trkpt>
      <trkpt lat="47.31911" lon="-1.32279">
        <ele>3.5019531</ele>
        <time>2011-11-20T08:05:57Z</time>
      </trkpt>
      <trkpt lat="47.31886" lon="-1.32334">
        <ele>3.982666</ele>
        <time>2011-11-20T08:06:06Z</time>
      </trkpt>
      <trkpt lat="47.31835" lon="-1.32421">
        <ele>3.0212402</ele>
        <time>2011-11-20T08:06:22Z</time>
      </trkpt>
      <trkpt lat="47.31793" lon="-1.32467">
        <ele>3.5019531</ele>
        <time>2011-11-20T08:06:34Z</time>
      </trkpt>
      <trkpt lat="47.31781" lon="-1.32478">
        <ele>3.0212402</ele>
        <time>2011-11-20T08:06:37Z</time>
      </trkpt>
      <trkpt lat="47.31775" lon="-1.32485">
        <ele>3.0212402</ele>
        <time>2011-11-20T08:06:39Z</time>
      </trkpt>
      <trkpt lat="47.31765" lon="-1.32494">
        <ele>3.5019531</ele>
        <time>2011-11-20T08:06:42Z</time>
      </trkpt>
      <trkpt lat="47.31754" lon="-1.3249">
        <ele>3.5019531</ele>
        <time>2011-11-20T08:06:46Z</time>
      </trkpt>
      <trkpt lat="47.31738" lon="-1.32474">
        <ele>4.4632568</ele>
        <time>2011-11-20T08:06:52Z</time>
      </trkpt>
      <trkpt lat="47.31702" lon="-1.32488">
        <ele>4.4632568</ele>
        <time>2011-11-20T08:07:02Z</time>
      </trkpt>
      <trkpt lat="47.3169" lon="-1.32481">
        <ele>5.4245605</ele>
        <time>2011-11-20T08:07:06Z</time>
      </trkpt>
      <trkpt lat="47.3168" lon="-1.32484">
        <ele>6.8664551</ele>
        <time>2011-11-20T08:07:11Z</time>
      </trkpt>
      <trkpt lat="47.3164" lon="-1.32573">
        <ele>7.347168</ele>
        <time>2011-11-20T08:07:29Z</time>
      </trkpt>
      <trkpt lat="47.31573" lon="-1.32676">
        <ele>7.8278809</ele>
        <time>2011-11-20T08:07:48Z</time>
      </trkpt>
      <trkpt lat="47.31494" lon="-1.32769">
        <ele>7.8278809</ele>
        <time>2011-11-20T08:08:09Z</time>
      </trkpt>
      <trkpt lat="47.31422" lon="-1.32833">
        <ele>7.347168</ele>
        <time>2011-11-20T08:08:25Z</time>
      </trkpt>
      <trkpt lat="47.31329" lon="-1.32913">
        <ele>6.8664551</ele>
        <time>2011-11-20T08:08:45Z</time>
      </trkpt>
      <trkpt lat="47.31274" lon="-1.32962">
        <ele>6.8664551</ele>
        <time>2011-11-20T08:08:57Z</time>
      </trkpt>
      <trkpt lat="47.3125" lon="-1.32945">
        <ele>7.347168</ele>
        <time>2011-11-20T08:09:04Z</time>
      </trkpt>
      <trkpt lat="47.31227" lon="-1.32844">
        <ele>10.711792</ele>
        <time>2011-11-20T08:09:20Z</time>
      </trkpt>
      <trkpt lat="47.31217" lon="-1.32809">
        <ele>11.6732178</ele>
        <time>2011-11-20T08:09:27Z</time>
      </trkpt>
      <trkpt lat="47.31207" lon="-1.32806">
        <ele>12.6343994</ele>
        <time>2011-11-20T08:09:31Z</time>
      </trkpt>
      <trkpt lat="47.31175" lon="-1.32835">
        <ele>11.1925049</ele>
        <time>2011-11-20T08:09:40Z</time>
      </trkpt>
      <trkpt lat="47.31164" lon="-1.32823">
        <ele>12.1538086</ele>
        <time>2011-11-20T08:09:45Z</time>
      </trkpt>
      <trkpt lat="47.31154" lon="-1.32796">
        <ele>12.1538086</ele>
        <time>2011-11-20T08:09:49Z</time>
      </trkpt>
      <trkpt lat="47.31136" lon="-1.32773">
        <ele>14.076416</ele>
        <time>2011-11-20T08:09:53Z</time>
      </trkpt>
      <trkpt lat="47.31126" lon="-1.32763">
        <ele>15.9990234</ele>
        <time>2011-11-20T08:09:55Z</time>
      </trkpt>
      <trkpt lat="47.31115" lon="-1.32746">
        <ele>16.9604492</ele>
        <time>2011-11-20T08:09:58Z</time>
      </trkpt>
      <trkpt lat="47.31104" lon="-1.32728">
        <ele>18.8830566</ele>
        <time>2011-11-20T08:10:01Z</time>
      </trkpt>
      <trkpt lat="47.3109" lon="-1.3271">
        <ele>20.8056641</ele>
        <time>2011-11-20T08:10:05Z</time>
      </trkpt>
      <trkpt lat="47.31073" lon="-1.32689">
        <ele>23.6895752</ele>
        <time>2011-11-20T08:10:12Z</time>
      </trkpt>
      <trkpt lat="47.31049" lon="-1.32658">
        <ele>27.0543213</ele>
        <time>2011-11-20T08:10:24Z</time>
      </trkpt>
      <trkpt lat="47.31029" lon="-1.32622">
        <ele>30.4188232</ele>
        <time>2011-11-20T08:10:38Z</time>
      </trkpt>
      <trkpt lat="47.30995" lon="-1.32564">
        <ele>32.8222656</ele>
        <time>2011-11-20T08:11:00Z</time>
      </trkpt>
      <trkpt lat="47.3097" lon="-1.32517">
        <ele>35.2254639</ele>
        <time>2011-11-20T08:11:15Z</time>
      </trkpt>
      <trkpt lat="47.30965" lon="-1.32519">
        <ele>35.2254639</ele>
        <time>2011-11-20T08:11:19Z</time>
      </trkpt>
      <trkpt lat="47.30926" lon="-1.32561">
        <ele>34.2641602</ele>
        <time>2011-11-20T08:11:41Z</time>
      </trkpt>
      <trkpt lat="47.30894" lon="-1.32594">
        <ele>33.7834473</ele>
        <time>2011-11-20T08:11:59Z</time>
      </trkpt>
      <trkpt lat="47.3087" lon="-1.32635">
        <ele>32.3415527</ele>
        <time>2011-11-20T08:12:14Z</time>
      </trkpt>
      <trkpt lat="47.3086" lon="-1.32654">
        <ele>32.8222656</ele>
        <time>2011-11-20T08:12:22Z</time>
      </trkpt>
      <trkpt lat="47.30854" lon="-1.32659">
        <ele>32.3415527</ele>
        <time>2011-11-20T08:12:26Z</time>
      </trkpt>
      <trkpt lat="47.30835" lon="-1.3269">
        <ele>31.380127</ele>
        <time>2011-11-20T08:12:41Z</time>
      </trkpt>
      <trkpt lat="47.30818" lon="-1.32721">
        <ele>30.4188232</ele>
        <time>2011-11-20T08:12:57Z</time>
      </trkpt>
      <trkpt lat="47.30802" lon="-1.32747">
        <ele>28.9769287</ele>
        <time>2011-11-20T08:13:33Z</time>
      </trkpt>
      <trkpt lat="47.30785" lon="-1.32769">
        <ele>27.5349121</ele>
        <time>2011-11-20T08:13:38Z</time>
      </trkpt>
      <trkpt lat="47.30788" lon="-1.32787">
        <ele>26.0928955</ele>
        <time>2011-11-20T08:13:42Z</time>
      </trkpt>
      <trkpt lat="47.30822" lon="-1.32834">
        <ele>22.7282715</ele>
        <time>2011-11-20T08:13:50Z</time>
      </trkpt>
      <trkpt lat="47.30828" lon="-1.32841">
        <ele>22.7282715</ele>
        <time>2011-11-20T08:13:51Z</time>
      </trkpt>
      <trkpt lat="47.3086" lon="-1.32891">
        <ele>20.8056641</ele>
        <time>2011-11-20T08:13:58Z</time>
      </trkpt>
      <trkpt lat="47.30875" lon="-1.32906">
        <ele>19.3637695</ele>
        <time>2011-11-20T08:14:01Z</time>
      </trkpt>
      <trkpt lat="47.30894" lon="-1.32921">
        <ele>17.9217529</ele>
        <time>2011-11-20T08:14:04Z</time>
      </trkpt>
      <trkpt lat="47.30918" lon="-1.32948">
        <ele>15.0377197</ele>
        <time>2011-11-20T08:14:08Z</time>
      </trkpt>
      <trkpt lat="47.30938" lon="-1.32971">
        <ele>13.1151123</ele>
        <time>2011-11-20T08:14:11Z</time>
      </trkpt>
      <trkpt lat="47.30972" lon="-1.32988">
        <ele>9.2698975</ele>
        <time>2011-11-20T08:14:16Z</time>
      </trkpt>
      <trkpt lat="47.3099" lon="-1.33009">
        <ele>6.8664551</ele>
        <time>2011-11-20T08:14:19Z</time>
      </trkpt>
      <trkpt lat="47.30995" lon="-1.33015">
        <ele>5.9052734</ele>
        <time>2011-11-20T08:14:20Z</time>
      </trkpt>
      <trkpt lat="47.31014" lon="-1.33008">
        <ele>5.9052734</ele>
        <time>2011-11-20T08:14:24Z</time>
      </trkpt>
      <trkpt lat="47.3102" lon="-1.33002">
        <ele>6.3858643</ele>
        <time>2011-11-20T08:14:26Z</time>
      </trkpt>
      <trkpt lat="47.31031" lon="-1.33">
        <ele>7.347168</ele>
        <time>2011-11-20T08:14:30Z</time>
      </trkpt>
      <trkpt lat="47.31039" lon="-1.33011">
        <ele>7.347168</ele>
        <time>2011-11-20T08:14:35Z</time>
      </trkpt>
      <trkpt lat="47.31047" lon="-1.33057">
        <ele>7.347168</ele>
        <time>2011-11-20T08:14:46Z</time>
      </trkpt>
      <trkpt lat="47.31079" lon="-1.3305">
        <ele>6.8664551</ele>
        <time>2011-11-20T08:14:56Z</time>
      </trkpt>
      <trkpt lat="47.31155" lon="-1.33021">
        <ele>6.3858643</ele>
        <time>2011-11-20T08:15:15Z</time>
      </trkpt>
      <trkpt lat="47.31161" lon="-1.33054">
        <ele>6.8664551</ele>
        <time>2011-11-20T08:15:22Z</time>
      </trkpt>
      <trkpt lat="47.31156" lon="-1.33061">
        <ele>6.8664551</ele>
        <time>2011-11-20T08:15:24Z</time>
      </trkpt>
      <trkpt lat="47.31115" lon="-1.33099">
        <ele>6.8664551</ele>
        <time>2011-11-20T08:15:36Z</time>
      </trkpt>
      <trkpt lat="47.31064" lon="-1.33159">
        <ele>5.9052734</ele>
        <time>2011-11-20T08:15:50Z</time>
      </trkpt>
      <trkpt lat="47.31028" lon="-1.33207">
        <ele>6.3858643</ele>
        <time>2011-11-20T08:16:04Z</time>
      </trkpt>
      <trkpt lat="47.31025" lon="-1.3321">
        <ele>6.8664551</ele>
        <time>2011-11-20T08:16:05Z</time>
      </trkpt>
      <trkpt lat="47.31016" lon="-1.33213">
        <ele>7.347168</ele>
        <time>2011-11-20T08:16:08Z</time>
      </trkpt>
      <trkpt lat="47.30971" lon="-1.33264">
        <ele>7.347168</ele>
        <time>2011-11-20T08:16:22Z</time>
      </trkpt>
      <trkpt lat="47.30944" lon="-1.33302">
        <ele>7.347168</ele>
        <time>2011-11-20T08:16:36Z</time>
      </trkpt>
      <trkpt lat="47.3092" lon="-1.33331">
        <ele>7.347168</ele>
        <time>2011-11-20T08:16:49Z</time>
      </trkpt>
      <trkpt lat="47.30871" lon="-1.33395">
        <ele>6.3858643</ele>
        <time>2011-11-20T08:17:05Z</time>
      </trkpt>
      <trkpt lat="47.30806" lon="-1.33506">
        <ele>5.9052734</ele>
        <time>2011-11-20T08:17:26Z</time>
      </trkpt>
      <trkpt lat="47.30751" lon="-1.33614">
        <ele>5.9052734</ele>
        <time>2011-11-20T08:17:45Z</time>
      </trkpt>
      <trkpt lat="47.30734" lon="-1.33638">
        <ele>6.3858643</ele>
        <time>2011-11-20T08:17:50Z</time>
      </trkpt>
      <trkpt lat="47.30704" lon="-1.33711">
        <ele>6.3858643</ele>
        <time>2011-11-20T08:18:02Z</time>
      </trkpt>
      <trkpt lat="47.30689" lon="-1.33733">
        <ele>6.3858643</ele>
        <time>2011-11-20T08:18:06Z</time>
      </trkpt>
      <trkpt lat="47.30616" lon="-1.33772">
        <ele>6.8664551</ele>
        <time>2011-11-20T08:18:23Z</time>
      </trkpt>
      <trkpt lat="47.30577" lon="-1.33775">
        <ele>6.3858643</ele>
        <time>2011-11-20T08:18:37Z</time>
      </trkpt>
      <trkpt lat="47.3056" lon="-1.33748">
        <ele>6.3858643</ele>
        <time>2011-11-20T08:18:44Z</time>
      </trkpt>
      <trkpt lat="47.30539" lon="-1.33669">
        <ele>5.9052734</ele>
        <time>2011-11-20T08:18:58Z</time>
      </trkpt>
      <trkpt lat="47.30535" lon="-1.33612">
        <ele>5.9052734</ele>
        <time>2011-11-20T08:19:09Z</time>
      </trkpt>
      <trkpt lat="47.30538" lon="-1.33594">
        <ele>5.4245605</ele>
        <time>2011-11-20T08:19:12Z</time>
      </trkpt>
      <trkpt lat="47.3052" lon="-1.33504">
        <ele>6.3858643</ele>
        <time>2011-11-20T08:19:27Z</time>
      </trkpt>
      <trkpt lat="47.30512" lon="-1.3349">
        <ele>5.9052734</ele>
        <time>2011-11-20T08:19:30Z</time>
      </trkpt>
      <trkpt lat="47.30505" lon="-1.33474">
        <ele>5.9052734</ele>
        <time>2011-11-20T08:19:33Z</time>
      </trkpt>
      <trkpt lat="47.30495" lon="-1.33433">
        <ele>5.4245605</ele>
        <time>2011-11-20T08:19:40Z</time>
      </trkpt>
      <trkpt lat="47.30478" lon="-1.33352">
        <ele>4.9438477</ele>
        <time>2011-11-20T08:19:51Z</time>
      </trkpt>
      <trkpt lat="47.30469" lon="-1.33273">
        <ele>5.4245605</ele>
        <time>2011-11-20T08:20:04Z</time>
      </trkpt>
      <trkpt lat="47.30465" lon="-1.3324">
        <ele>5.9052734</ele>
        <time>2011-11-20T08:20:09Z</time>
      </trkpt>
      <trkpt lat="47.30452" lon="-1.33206">
        <ele>4.9438477</ele>
        <time>2011-11-20T08:20:14Z</time>
      </trkpt>
      <trkpt lat="47.30439" lon="-1.33187">
        <ele>4.9438477</ele>
        <time>2011-11-20T08:20:18Z</time>
      </trkpt>
      <trkpt lat="47.30417" lon="-1.33199">
        <ele>4.4632568</ele>
        <time>2011-11-20T08:20:24Z</time>
      </trkpt>
      <trkpt lat="47.30398" lon="-1.33256">
        <ele>4.4632568</ele>
        <time>2011-11-20T08:20:33Z</time>
      </trkpt>
      <trkpt lat="47.30379" lon="-1.33307">
        <ele>4.4632568</ele>
        <time>2011-11-20T08:20:40Z</time>
      </trkpt>
      <trkpt lat="47.30368" lon="-1.33337">
        <ele>4.4632568</ele>
        <time>2011-11-20T08:20:44Z</time>
      </trkpt>
      <trkpt lat="47.30366" lon="-1.33365">
        <ele>4.9438477</ele>
        <time>2011-11-20T08:20:48Z</time>
      </trkpt>
      <trkpt lat="47.30368" lon="-1.33379">
        <ele>4.9438477</ele>
        <time>2011-11-20T08:20:50Z</time>
      </trkpt>
      <trkpt lat="47.30386" lon="-1.33449">
        <ele>5.4245605</ele>
        <time>2011-11-20T08:21:00Z</time>
      </trkpt>
      <trkpt lat="47.30391" lon="-1.33492">
        <ele>5.9052734</ele>
        <time>2011-11-20T08:21:06Z</time>
      </trkpt>
      <trkpt lat="47.30392" lon="-1.33547">
        <ele>5.9052734</ele>
        <time>2011-11-20T08:21:14Z</time>
      </trkpt>
      <trkpt lat="47.30393" lon="-1.33592">
        <ele>6.3858643</ele>
        <time>2011-11-20T08:21:20Z</time>
      </trkpt>
      <trkpt lat="47.30385" lon="-1.33626">
        <ele>6.3858643</ele>
        <time>2011-11-20T08:21:24Z</time>
      </trkpt>
      <trkpt lat="47.30385" lon="-1.33651">
        <ele>5.4245605</ele>
        <time>2011-11-20T08:21:28Z</time>
      </trkpt>
      <trkpt lat="47.30386" lon="-1.33687">
        <ele>6.3858643</ele>
        <time>2011-11-20T08:21:33Z</time>
      </trkpt>
      <trkpt lat="47.30372" lon="-1.3378">
        <ele>6.3858643</ele>
        <time>2011-11-20T08:21:47Z</time>
      </trkpt>
      <trkpt lat="47.30352" lon="-1.33896">
        <ele>5.9052734</ele>
        <time>2011-11-20T08:22:04Z</time>
      </trkpt>
      <trkpt lat="47.30348" lon="-1.33909">
        <ele>5.9052734</ele>
        <time>2011-11-20T08:22:06Z</time>
      </trkpt>
      <trkpt lat="47.30348" lon="-1.33938">
        <ele>5.9052734</ele>
        <time>2011-11-20T08:22:11Z</time>
      </trkpt>
      <trkpt lat="47.30358" lon="-1.33959">
        <ele>5.4245605</ele>
        <time>2011-11-20T08:22:15Z</time>
      </trkpt>
      <trkpt lat="47.30356" lon="-1.33987">
        <ele>6.3858643</ele>
        <time>2011-11-20T08:22:20Z</time>
      </trkpt>
      <trkpt lat="47.30323" lon="-1.34042">
        <ele>6.8664551</ele>
        <time>2011-11-20T08:22:31Z</time>
      </trkpt>
      <trkpt lat="47.30268" lon="-1.34105">
        <ele>5.9052734</ele>
        <time>2011-11-20T08:22:44Z</time>
      </trkpt>
      <trkpt lat="47.30249" lon="-1.34089">
        <ele>6.3858643</ele>
        <time>2011-11-20T08:22:50Z</time>
      </trkpt>
      <trkpt lat="47.30231" lon="-1.34026">
        <ele>6.3858643</ele>
        <time>2011-11-20T08:22:59Z</time>
      </trkpt>
      <trkpt lat="47.30222" lon="-1.34001">
        <ele>6.3858643</ele>
        <time>2011-11-20T08:23:03Z</time>
      </trkpt>
      <trkpt lat="47.30204" lon="-1.33998">
        <ele>5.9052734</ele>
        <time>2011-11-20T08:23:08Z</time>
      </trkpt>
      <trkpt lat="47.30129" lon="-1.34077">
        <ele>6.3858643</ele>
        <time>2011-11-20T08:23:26Z</time>
      </trkpt>
      <trkpt lat="47.30118" lon="-1.34098">
        <ele>6.3858643</ele>
        <time>2011-11-20T08:23:30Z</time>
      </trkpt>
      <trkpt lat="47.30113" lon="-1.34111">
        <ele>6.3858643</ele>
        <time>2011-11-20T08:23:32Z</time>
      </trkpt>
      <trkpt lat="47.30107" lon="-1.34137">
        <ele>5.9052734</ele>
        <time>2011-11-20T08:23:36Z</time>
      </trkpt>
      <trkpt lat="47.30092" lon="-1.34138">
        <ele>5.4245605</ele>
        <time>2011-11-20T08:23:41Z</time>
      </trkpt>
      <trkpt lat="47.30068" lon="-1.34109">
        <ele>4.9438477</ele>
        <time>2011-11-20T08:23:47Z</time>
      </trkpt>
      <trkpt lat="47.30026" lon="-1.34118">
        <ele>5.4245605</ele>
        <time>2011-11-20T08:23:56Z</time>
      </trkpt>
      <trkpt lat="47.30023" lon="-1.34121">
        <ele>5.4245605</ele>
        <time>2011-11-20T08:23:57Z</time>
      </trkpt>
      <trkpt lat="47.3002" lon="-1.34111">
        <ele>5.4245605</ele>
        <time>2011-11-20T08:24:02Z</time>
      </trkpt>
      <trkpt lat="47.30023" lon="-1.34106">
        <ele>5.9052734</ele>
        <time>2011-11-20T08:24:04Z</time>
      </trkpt>
      <trkpt lat="47.30014" lon="-1.34107">
        <ele>6.8664551</ele>
        <time>2011-11-20T08:24:10Z</time>
      </trkpt>
      <trkpt lat="47.30006" lon="-1.34122">
        <ele>9.2698975</ele>
        <time>2011-11-20T08:24:15Z</time>
      </trkpt>
      <trkpt lat="47.30017" lon="-1.34189">
        <ele>8.7891846</ele>
        <time>2011-11-20T08:24:28Z</time>
      </trkpt>
      <trkpt lat="47.30051" lon="-1.34363">
        <ele>9.2698975</ele>
        <time>2011-11-20T08:24:52Z</time>
      </trkpt>
      <trkpt lat="47.30087" lon="-1.34552">
        <ele>8.3085938</ele>
        <time>2011-11-20T08:25:13Z</time>
      </trkpt>
      <trkpt lat="47.30107" lon="-1.34731">
        <ele>8.3085938</ele>
        <time>2011-11-20T08:25:32Z</time>
      </trkpt>
      <trkpt lat="47.30097" lon="-1.3488">
        <ele>8.7891846</ele>
        <time>2011-11-20T08:25:51Z</time>
      </trkpt>
      <trkpt lat="47.30068" lon="-1.35007">
        <ele>8.3085938</ele>
        <time>2011-11-20T08:26:09Z</time>
      </trkpt>
      <trkpt lat="47.30052" lon="-1.35055">
        <ele>8.7891846</ele>
        <time>2011-11-20T08:26:17Z</time>
      </trkpt>
      <trkpt lat="47.30021" lon="-1.35124">
        <ele>9.2698975</ele>
        <time>2011-11-20T08:26:35Z</time>
      </trkpt>
      <trkpt lat="47.30019" lon="-1.35127">
        <ele>8.7891846</ele>
        <time>2011-11-20T08:26:37Z</time>
      </trkpt>
      <trkpt lat="47.3002" lon="-1.35119">
        <ele>7.8278809</ele>
        <time>2011-11-20T08:26:43Z</time>
      </trkpt>
      <trkpt lat="47.30055" lon="-1.35038">
        <ele>6.8664551</ele>
        <time>2011-11-20T08:27:01Z</time>
      </trkpt>
      <trkpt lat="47.30086" lon="-1.34937">
        <ele>7.8278809</ele>
        <time>2011-11-20T08:27:18Z</time>
      </trkpt>
      <trkpt lat="47.30102" lon="-1.3482">
        <ele>5.9052734</ele>
        <time>2011-11-20T08:27:33Z</time>
      </trkpt>
      <trkpt lat="47.30103" lon="-1.34702">
        <ele>6.3858643</ele>
        <time>2011-11-20T08:27:50Z</time>
      </trkpt>
      <trkpt lat="47.30087" lon="-1.34568">
        <ele>7.347168</ele>
        <time>2011-11-20T08:28:09Z</time>
      </trkpt>
      <trkpt lat="47.30056" lon="-1.34405">
        <ele>6.8664551</ele>
        <time>2011-11-20T08:28:31Z</time>
      </trkpt>
      <trkpt lat="47.30017" lon="-1.34199">
        <ele>7.347168</ele>
        <time>2011-11-20T08:28:58Z</time>
      </trkpt>
      <trkpt lat="47.30003" lon="-1.34122">
        <ele>8.3085938</ele>
        <time>2011-11-20T08:29:11Z</time>
      </trkpt>
      <trkpt lat="47.3001" lon="-1.34111">
        <ele>7.347168</ele>
        <time>2011-11-20T08:29:15Z</time>
      </trkpt>
      <trkpt lat="47.30004" lon="-1.34081">
        <ele>4.9438477</ele>
        <time>2011-11-20T08:29:20Z</time>
      </trkpt>
      <trkpt lat="47.29968" lon="-1.3391">
        <ele>3.982666</ele>
        <time>2011-11-20T08:29:43Z</time>
      </trkpt>
      <trkpt lat="47.29953" lon="-1.33818">
        <ele>3.0212402</ele>
        <time>2011-11-20T08:29:55Z</time>
      </trkpt>
      <trkpt lat="47.29935" lon="-1.33729">
        <ele>2.5406494</ele>
        <time>2011-11-20T08:30:07Z</time>
      </trkpt>
      <trkpt lat="47.29915" lon="-1.33645">
        <ele>5.9052734</ele>
        <time>2011-11-20T08:30:22Z</time>
      </trkpt>
      <trkpt lat="47.29919" lon="-1.33569">
        <ele>6.8664551</ele>
        <time>2011-11-20T08:30:36Z</time>
      </trkpt>
      <trkpt lat="47.29943" lon="-1.33527">
        <ele>10.2312012</ele>
        <time>2011-11-20T08:30:48Z</time>
      </trkpt>
      <trkpt lat="47.29942" lon="-1.33524">
        <ele>10.2312012</ele>
        <time>2011-11-20T08:30:49Z</time>
      </trkpt>
      <trkpt lat="47.29941" lon="-1.33521">
        <ele>10.711792</ele>
        <time>2011-11-20T08:30:50Z</time>
      </trkpt>
      <trkpt lat="47.29966" lon="-1.33477">
        <ele>12.6343994</ele>
        <time>2011-11-20T08:31:04Z</time>
      </trkpt>
      <trkpt lat="47.29989" lon="-1.33406">
        <ele>15.5184326</ele>
        <time>2011-11-20T08:31:22Z</time>
      </trkpt>
      <trkpt lat="47.29992" lon="-1.33334">
        <ele>18.8830566</ele>
        <time>2011-11-20T08:31:38Z</time>
      </trkpt>
      <trkpt lat="47.30006" lon="-1.33248">
        <ele>21.286377</ele>
        <time>2011-11-20T08:31:57Z</time>
      </trkpt>
      <trkpt lat="47.29986" lon="-1.33253">
        <ele>22.2475586</ele>
        <time>2011-11-20T08:32:04Z</time>
      </trkpt>
      <trkpt lat="47.29953" lon="-1.33297">
        <ele>26.0928955</ele>
        <time>2011-11-20T08:32:18Z</time>
      </trkpt>
      <trkpt lat="47.29906" lon="-1.33359">
        <ele>29.4575195</ele>
        <time>2011-11-20T08:32:37Z</time>
      </trkpt>
      <trkpt lat="47.29854" lon="-1.33382">
        <ele>31.8607178</ele>
        <time>2011-11-20T08:32:54Z</time>
      </trkpt>
      <trkpt lat="47.29814" lon="-1.33346">
        <ele>33.7834473</ele>
        <time>2011-11-20T08:33:09Z</time>
      </trkpt>
      <trkpt lat="47.29807" lon="-1.33278">
        <ele>36.1867676</ele>
        <time>2011-11-20T08:33:24Z</time>
      </trkpt>
      <trkpt lat="47.29828" lon="-1.33207">
        <ele>37.6286621</ele>
        <time>2011-11-20T08:33:42Z</time>
      </trkpt>
      <trkpt lat="47.29829" lon="-1.33197">
        <ele>37.6286621</ele>
        <time>2011-11-20T08:33:45Z</time>
      </trkpt>
      <trkpt lat="47.29822" lon="-1.33179">
        <ele>37.6286621</ele>
        <time>2011-11-20T08:33:50Z</time>
      </trkpt>
      <trkpt lat="47.29805" lon="-1.33133">
        <ele>40.9934082</ele>
        <time>2011-11-20T08:34:03Z</time>
      </trkpt>
      <trkpt lat="47.2979" lon="-1.33095">
        <ele>44.3580322</ele>
        <time>2011-11-20T08:34:14Z</time>
      </trkpt>
      <trkpt lat="47.29782" lon="-1.33097">
        <ele>45.7999268</ele>
        <time>2011-11-20T08:34:17Z</time>
      </trkpt>
      <trkpt lat="47.29774" lon="-1.33105">
        <ele>46.7612305</ele>
        <time>2011-11-20T08:34:20Z</time>
      </trkpt>
      <trkpt lat="47.29723" lon="-1.3316">
        <ele>49.6452637</ele>
        <time>2011-11-20T08:34:42Z</time>
      </trkpt>
      <trkpt lat="47.29656" lon="-1.33207">
        <ele>49.6452637</ele>
        <time>2011-11-20T08:35:02Z</time>
      </trkpt>
      <trkpt lat="47.29604" lon="-1.33242">
        <ele>48.68396</ele>
        <time>2011-11-20T08:35:17Z</time>
      </trkpt>
      <trkpt lat="47.29594" lon="-1.33276">
        <ele>48.2033691</ele>
        <time>2011-11-20T08:35:25Z</time>
      </trkpt>
      <trkpt lat="47.29588" lon="-1.33301">
        <ele>47.7225342</ele>
        <time>2011-11-20T08:35:30Z</time>
      </trkpt>
      <trkpt lat="47.29579" lon="-1.33311">
        <ele>46.7612305</ele>
        <time>2011-11-20T08:35:33Z</time>
      </trkpt>
      <trkpt lat="47.29562" lon="-1.33343">
        <ele>47.7225342</ele>
        <time>2011-11-20T08:35:40Z</time>
      </trkpt>
      <trkpt lat="47.29567" lon="-1.33392">
        <ele>48.68396</ele>
        <time>2011-11-20T08:35:49Z</time>
      </trkpt>
      <trkpt lat="47.29555" lon="-1.3343">
        <ele>48.2033691</ele>
        <time>2011-11-20T08:35:56Z</time>
      </trkpt>
      <trkpt lat="47.29504" lon="-1.33464">
        <ele>50.6065674</ele>
        <time>2011-11-20T08:36:11Z</time>
      </trkpt>
      <trkpt lat="47.29492" lon="-1.33469">
        <ele>50.1259766</ele>
        <time>2011-11-20T08:36:14Z</time>
      </trkpt>
      <trkpt lat="47.29477" lon="-1.3348">
        <ele>51.0871582</ele>
        <time>2011-11-20T08:36:18Z</time>
      </trkpt>
      <trkpt lat="47.29438" lon="-1.33522">
        <ele>52.5291748</ele>
        <time>2011-11-20T08:36:30Z</time>
      </trkpt>
      <trkpt lat="47.29446" lon="-1.33549">
        <ele>52.048584</ele>
        <time>2011-11-20T08:36:36Z</time>
      </trkpt>
      <trkpt lat="47.29504" lon="-1.33611">
        <ele>48.2033691</ele>
        <time>2011-11-20T08:36:50Z</time>
      </trkpt>
      <trkpt lat="47.29509" lon="-1.33616">
        <ele>48.2033691</ele>
        <time>2011-11-20T08:36:51Z</time>
      </trkpt>
      <trkpt lat="47.29541" lon="-1.33648">
        <ele>48.2033691</ele>
        <time>2011-11-20T08:36:57Z</time>
      </trkpt>
      <trkpt lat="47.29543" lon="-1.33687">
        <ele>49.6452637</ele>
        <time>2011-11-20T08:37:03Z</time>
      </trkpt>
      <trkpt lat="47.29498" lon="-1.33752">
        <ele>52.048584</ele>
        <time>2011-11-20T08:37:15Z</time>
      </trkpt>
      <trkpt lat="47.29489" lon="-1.33764">
        <ele>53.4904785</ele>
        <time>2011-11-20T08:37:18Z</time>
      </trkpt>
      <trkpt lat="47.29468" lon="-1.33789">
        <ele>53.9711914</ele>
        <time>2011-11-20T08:37:25Z</time>
      </trkpt>
      <trkpt lat="47.29417" lon="-1.33764">
        <ele>56.8551025</ele>
        <time>2011-11-20T08:37:39Z</time>
      </trkpt>
      <trkpt lat="47.29414" lon="-1.33761">
        <ele>57.3358154</ele>
        <time>2011-11-20T08:37:40Z</time>
      </trkpt>
      <trkpt lat="47.29398" lon="-1.33739">
        <ele>55.4130859</ele>
        <time>2011-11-20T08:37:45Z</time>
      </trkpt>
      <trkpt lat="47.29388" lon="-1.33723">
        <ele>55.4130859</ele>
        <time>2011-11-20T08:37:48Z</time>
      </trkpt>
      <trkpt lat="47.29375" lon="-1.33721">
        <ele>55.8937988</ele>
        <time>2011-11-20T08:37:52Z</time>
      </trkpt>
      <trkpt lat="47.29362" lon="-1.3374">
        <ele>55.4130859</ele>
        <time>2011-11-20T08:37:56Z</time>
      </trkpt>
      <trkpt lat="47.29357" lon="-1.33752">
        <ele>55.4130859</ele>
        <time>2011-11-20T08:37:58Z</time>
      </trkpt>
      <trkpt lat="47.29342" lon="-1.33845">
        <ele>53.4904785</ele>
        <time>2011-11-20T08:38:10Z</time>
      </trkpt>
      <trkpt lat="47.29336" lon="-1.33868">
        <ele>52.5291748</ele>
        <time>2011-11-20T08:38:13Z</time>
      </trkpt>
      <trkpt lat="47.29345" lon="-1.33895">
        <ele>51.5678711</ele>
        <time>2011-11-20T08:38:17Z</time>
      </trkpt>
      <trkpt lat="47.29361" lon="-1.33909">
        <ele>50.6065674</ele>
        <time>2011-11-20T08:38:20Z</time>
      </trkpt>
      <trkpt lat="47.29373" lon="-1.33928">
        <ele>48.68396</ele>
        <time>2011-11-20T08:38:23Z</time>
      </trkpt>
      <trkpt lat="47.29382" lon="-1.33947">
        <ele>46.7612305</ele>
        <time>2011-11-20T08:38:26Z</time>
      </trkpt>
      <trkpt lat="47.29383" lon="-1.33952">
        <ele>45.7999268</ele>
        <time>2011-11-20T08:38:27Z</time>
      </trkpt>
      <trkpt lat="47.29378" lon="-1.33967">
        <ele>44.838623</ele>
        <time>2011-11-20T08:38:31Z</time>
      </trkpt>
      <trkpt lat="47.2937" lon="-1.33975">
        <ele>44.3580322</ele>
        <time>2011-11-20T08:38:33Z</time>
      </trkpt>
      <trkpt lat="47.29342" lon="-1.34008">
        <ele>44.838623</ele>
        <time>2011-11-20T08:38:40Z</time>
      </trkpt>
      <trkpt lat="47.29291" lon="-1.34062">
        <ele>48.68396</ele>
        <time>2011-11-20T08:38:52Z</time>
      </trkpt>
      <trkpt lat="47.29277" lon="-1.34073">
        <ele>50.6065674</ele>
        <time>2011-11-20T08:38:58Z</time>
      </trkpt>
      <trkpt lat="47.29281" lon="-1.34075">
        <ele>49.6452637</ele>
        <time>2011-11-20T08:39:03Z</time>
      </trkpt>
      <trkpt lat="47.29293" lon="-1.34068">
        <ele>47.7225342</ele>
        <time>2011-11-20T08:39:06Z</time>
      </trkpt>
      <trkpt lat="47.29297" lon="-1.34064">
        <ele>46.2806396</ele>
        <time>2011-11-20T08:39:07Z</time>
      </trkpt>
      <trkpt lat="47.29305" lon="-1.34055">
        <ele>45.7999268</ele>
        <time>2011-11-20T08:39:09Z</time>
      </trkpt>
      <trkpt lat="47.29325" lon="-1.34035">
        <ele>44.3580322</ele>
        <time>2011-11-20T08:39:13Z</time>
      </trkpt>
      <trkpt lat="47.29351" lon="-1.34009">
        <ele>43.3966064</ele>
        <time>2011-11-20T08:39:19Z</time>
      </trkpt>
      <trkpt lat="47.29353" lon="-1.34023">
        <ele>40.5128174</ele>
        <time>2011-11-20T08:39:24Z</time>
      </trkpt>
      <trkpt lat="47.29355" lon="-1.34031">
        <ele>39.0706787</ele>
        <time>2011-11-20T08:39:27Z</time>
      </trkpt>
      <trkpt lat="47.29362" lon="-1.34026">
        <ele>37.1480713</ele>
        <time>2011-11-20T08:39:30Z</time>
      </trkpt>
      <trkpt lat="47.29368" lon="-1.34016">
        <ele>37.6286621</ele>
        <time>2011-11-20T08:39:33Z</time>
      </trkpt>
      <trkpt lat="47.29385" lon="-1.34002">
        <ele>35.2254639</ele>
        <time>2011-11-20T08:39:39Z</time>
      </trkpt>
      <trkpt lat="47.29391" lon="-1.33997">
        <ele>34.2641602</ele>
        <time>2011-11-20T08:39:41Z</time>
      </trkpt>
      <trkpt lat="47.29398" lon="-1.33995">
        <ele>34.744873</ele>
        <time>2011-11-20T08:39:43Z</time>
      </trkpt>
      <trkpt lat="47.29411" lon="-1.33987">
        <ele>31.8607178</ele>
        <time>2011-11-20T08:39:46Z</time>
      </trkpt>
      <trkpt lat="47.29426" lon="-1.33991">
        <ele>29.9381104</ele>
        <time>2011-11-20T08:39:50Z</time>
      </trkpt>
      <trkpt lat="47.29434" lon="-1.33992">
        <ele>27.0543213</ele>
        <time>2011-11-20T08:39:53Z</time>
      </trkpt>
      <trkpt lat="47.2944" lon="-1.33996">
        <ele>25.6123047</ele>
        <time>2011-11-20T08:39:55Z</time>
      </trkpt>
      <trkpt lat="47.29449" lon="-1.33991">
        <ele>23.6895752</ele>
        <time>2011-11-20T08:39:57Z</time>
      </trkpt>
      <trkpt lat="47.29457" lon="-1.33984">
        <ele>21.286377</ele>
        <time>2011-11-20T08:39:59Z</time>
      </trkpt>
      <trkpt lat="47.2946" lon="-1.33982">
        <ele>21.286377</ele>
        <time>2011-11-20T08:40:00Z</time>
      </trkpt>
      <trkpt lat="47.2947" lon="-1.33988">
        <ele>19.8443604</ele>
        <time>2011-11-20T08:40:03Z</time>
      </trkpt>
      <trkpt lat="47.29478" lon="-1.33992">
        <ele>17.9217529</ele>
        <time>2011-11-20T08:40:05Z</time>
      </trkpt>
      <trkpt lat="47.29483" lon="-1.34005">
        <ele>14.5570068</ele>
        <time>2011-11-20T08:40:08Z</time>
      </trkpt>
      <trkpt lat="47.29485" lon="-1.3401">
        <ele>14.5570068</ele>
        <time>2011-11-20T08:40:09Z</time>
      </trkpt>
      <trkpt lat="47.29489" lon="-1.34011">
        <ele>12.1538086</ele>
        <time>2011-11-20T08:40:11Z</time>
      </trkpt>
      <trkpt lat="47.29493" lon="-1.34006">
        <ele>11.6732178</ele>
        <time>2011-11-20T08:40:14Z</time>
      </trkpt>
      <trkpt lat="47.29521" lon="-1.33966">
        <ele>12.1538086</ele>
        <time>2011-11-20T08:40:27Z</time>
      </trkpt>
      <trkpt lat="47.29546" lon="-1.33938">
        <ele>13.1151123</ele>
        <time>2011-11-20T08:40:35Z</time>
      </trkpt>
      <trkpt lat="47.29569" lon="-1.3394">
        <ele>10.711792</ele>
        <time>2011-11-20T08:40:41Z</time>
      </trkpt>
      <trkpt lat="47.29576" lon="-1.33952">
        <ele>8.3085938</ele>
        <time>2011-11-20T08:40:43Z</time>
      </trkpt>
      <trkpt lat="47.29585" lon="-1.33969">
        <ele>2.5406494</ele>
        <time>2011-11-20T08:40:45Z</time>
      </trkpt>
      <trkpt lat="47.29589" lon="-1.33979">
        <ele>2.5406494</ele>
        <time>2011-11-20T08:40:46Z</time>
      </trkpt>
      <trkpt lat="47.29597" lon="-1.33998">
        <ele>0.618042</ele>
        <time>2011-11-20T08:40:48Z</time>
      </trkpt>
      <trkpt lat="47.29623" lon="-1.3406">
        <ele>1.5793457</ele>
        <time>2011-11-20T08:40:55Z</time>
      </trkpt>
      <trkpt lat="47.29627" lon="-1.34076">
        <ele>1.0986328</ele>
        <time>2011-11-20T08:40:57Z</time>
      </trkpt>
      <trkpt lat="47.29621" lon="-1.34101">
        <ele>3.982666</ele>
        <time>2011-11-20T08:41:02Z</time>
      </trkpt>
      <trkpt lat="47.29614" lon="-1.34101">
        <ele>3.5019531</ele>
        <time>2011-11-20T08:41:04Z</time>
      </trkpt>
      <trkpt lat="47.29549" lon="-1.34124">
        <ele>3.0212402</ele>
        <time>2011-11-20T08:41:21Z</time>
      </trkpt>
      <trkpt lat="47.2954" lon="-1.34128">
        <ele>3.0212402</ele>
        <time>2011-11-20T08:41:23Z</time>
      </trkpt>
      <trkpt lat="47.29526" lon="-1.34136">
        <ele>3.0212402</ele>
        <time>2011-11-20T08:41:26Z</time>
      </trkpt>
      <trkpt lat="47.29488" lon="-1.34186">
        <ele>3.0212402</ele>
        <time>2011-11-20T08:41:36Z</time>
      </trkpt>
      <trkpt lat="47.29468" lon="-1.34213">
        <ele>3.0212402</ele>
        <time>2011-11-20T08:41:42Z</time>
      </trkpt>
      <trkpt lat="47.29431" lon="-1.34296">
        <ele>3.0212402</ele>
        <time>2011-11-20T08:41:56Z</time>
      </trkpt>
      <trkpt lat="47.29426" lon="-1.3431">
        <ele>3.5019531</ele>
        <time>2011-11-20T08:41:59Z</time>
      </trkpt>
      <trkpt lat="47.29391" lon="-1.34301">
        <ele>2.5406494</ele>
        <time>2011-11-20T08:42:09Z</time>
      </trkpt>
      <trkpt lat="47.2936" lon="-1.34289">
        <ele>3.5019531</ele>
        <time>2011-11-20T08:42:17Z</time>
      </trkpt>
      <trkpt lat="47.293" lon="-1.3427">
        <ele>6.8664551</ele>
        <time>2011-11-20T08:42:33Z</time>
      </trkpt>
      <trkpt lat="47.29264" lon="-1.34279">
        <ele>9.7506104</ele>
        <time>2011-11-20T08:42:45Z</time>
      </trkpt>
      <trkpt lat="47.29221" lon="-1.34307">
        <ele>13.1151123</ele>
        <time>2011-11-20T08:42:59Z</time>
      </trkpt>
      <trkpt lat="47.29167" lon="-1.3435">
        <ele>16.4797363</ele>
        <time>2011-11-20T08:43:19Z</time>
      </trkpt>
      <trkpt lat="47.29118" lon="-1.34394">
        <ele>19.8443604</ele>
        <time>2011-11-20T08:43:38Z</time>
      </trkpt>
      <trkpt lat="47.29069" lon="-1.34439">
        <ele>21.7669678</ele>
        <time>2011-11-20T08:43:58Z</time>
      </trkpt>
      <trkpt lat="47.29041" lon="-1.34464">
        <ele>18.4023438</ele>
        <time>2011-11-20T08:44:05Z</time>
      </trkpt>
      <trkpt lat="47.29036" lon="-1.34468">
        <ele>18.4023438</ele>
        <time>2011-11-20T08:44:06Z</time>
      </trkpt>
      <trkpt lat="47.29012" lon="-1.34488">
        <ele>15.9990234</ele>
        <time>2011-11-20T08:44:10Z</time>
      </trkpt>
      <trkpt lat="47.28998" lon="-1.345">
        <ele>14.5570068</ele>
        <time>2011-11-20T08:44:12Z</time>
      </trkpt>
      <trkpt lat="47.2897" lon="-1.34524">
        <ele>14.076416</ele>
        <time>2011-11-20T08:44:17Z</time>
      </trkpt>
      <trkpt lat="47.28947" lon="-1.34527">
        <ele>15.0377197</ele>
        <time>2011-11-20T08:44:22Z</time>
      </trkpt>
      <trkpt lat="47.28923" lon="-1.34525">
        <ele>17.9217529</ele>
        <time>2011-11-20T08:44:29Z</time>
      </trkpt>
      <trkpt lat="47.289" lon="-1.34529">
        <ele>21.286377</ele>
        <time>2011-11-20T08:44:39Z</time>
      </trkpt>
      <trkpt lat="47.28892" lon="-1.34524">
        <ele>22.2475586</ele>
        <time>2011-11-20T08:44:45Z</time>
      </trkpt>
      <trkpt lat="47.28885" lon="-1.34523">
        <ele>23.6895752</ele>
        <time>2011-11-20T08:44:50Z</time>
      </trkpt>
      <trkpt lat="47.28873" lon="-1.34519">
        <ele>26.0928955</ele>
        <time>2011-11-20T08:44:58Z</time>
      </trkpt>
      <trkpt lat="47.28862" lon="-1.34515">
        <ele>27.0543213</ele>
        <time>2011-11-20T08:45:03Z</time>
      </trkpt>
      <trkpt lat="47.28852" lon="-1.34507">
        <ele>29.4575195</ele>
        <time>2011-11-20T08:45:08Z</time>
      </trkpt>
      <trkpt lat="47.28841" lon="-1.34498">
        <ele>30.8995361</ele>
        <time>2011-11-20T08:45:13Z</time>
      </trkpt>
      <trkpt lat="47.28839" lon="-1.34495">
        <ele>31.8607178</ele>
        <time>2011-11-20T08:45:14Z</time>
      </trkpt>
      <trkpt lat="47.28831" lon="-1.34484">
        <ele>34.2641602</ele>
        <time>2011-11-20T08:45:20Z</time>
      </trkpt>
      <trkpt lat="47.28827" lon="-1.34476">
        <ele>35.2254639</ele>
        <time>2011-11-20T08:45:23Z</time>
      </trkpt>
      <trkpt lat="47.28822" lon="-1.34468">
        <ele>36.6674805</ele>
        <time>2011-11-20T08:45:27Z</time>
      </trkpt>
      <trkpt lat="47.28799" lon="-1.34431">
        <ele>39.5512695</ele>
        <time>2011-11-20T08:45:44Z</time>
      </trkpt>
      <trkpt lat="47.28794" lon="-1.34425">
        <ele>40.0321045</ele>
        <time>2011-11-20T08:45:47Z</time>
      </trkpt>
      <trkpt lat="47.28773" lon="-1.34411">
        <ele>41.473999</ele>
        <time>2011-11-20T08:45:58Z</time>
      </trkpt>
      <trkpt lat="47.2873" lon="-1.34417">
        <ele>40.9934082</ele>
        <time>2011-11-20T08:46:15Z</time>
      </trkpt>
      <trkpt lat="47.28668" lon="-1.34409">
        <ele>41.473999</ele>
        <time>2011-11-20T08:46:36Z</time>
      </trkpt>
      <trkpt lat="47.28632" lon="-1.34392">
        <ele>40.9934082</ele>
        <time>2011-11-20T08:46:51Z</time>
      </trkpt>
      <trkpt lat="47.28614" lon="-1.34387">
        <ele>41.473999</ele>
        <time>2011-11-20T08:46:59Z</time>
      </trkpt>
      <trkpt lat="47.28611" lon="-1.34381">
        <ele>40.9934082</ele>
        <time>2011-11-20T08:47:02Z</time>
      </trkpt>
      <trkpt lat="47.28609" lon="-1.34378">
        <ele>41.473999</ele>
        <time>2011-11-20T08:47:05Z</time>
      </trkpt>
      <trkpt lat="47.28616" lon="-1.34375">
        <ele>41.9547119</ele>
        <time>2011-11-20T08:47:12Z</time>
      </trkpt>
      <trkpt lat="47.28625" lon="-1.34376">
        <ele>41.473999</ele>
        <time>2011-11-20T08:47:16Z</time>
      </trkpt>
      <trkpt lat="47.28714" lon="-1.34394">
        <ele>40.5128174</ele>
        <time>2011-11-20T08:47:37Z</time>
      </trkpt>
      <trkpt lat="47.28766" lon="-1.34404">
        <ele>39.5512695</ele>
        <time>2011-11-20T08:47:47Z</time>
      </trkpt>
      <trkpt lat="47.2878" lon="-1.34382">
        <ele>39.0706787</ele>
        <time>2011-11-20T08:47:54Z</time>
      </trkpt>
      <trkpt lat="47.28756" lon="-1.34277">
        <ele>37.1480713</ele>
        <time>2011-11-20T08:48:08Z</time>
      </trkpt>
      <trkpt lat="47.2872" lon="-1.3426">
        <ele>39.0706787</ele>
        <time>2011-11-20T08:48:16Z</time>
      </trkpt>
      <trkpt lat="47.28715" lon="-1.34258">
        <ele>40.0321045</ele>
        <time>2011-11-20T08:48:17Z</time>
      </trkpt>
      <trkpt lat="47.28706" lon="-1.34241">
        <ele>40.0321045</ele>
        <time>2011-11-20T08:48:21Z</time>
      </trkpt>
      <trkpt lat="47.28699" lon="-1.34154">
        <ele>42.4354248</ele>
        <time>2011-11-20T08:48:35Z</time>
      </trkpt>
      <trkpt lat="47.28706" lon="-1.34142">
        <ele>41.9547119</ele>
        <time>2011-11-20T08:48:39Z</time>
      </trkpt>
      <trkpt lat="47.28708" lon="-1.34128">
        <ele>42.4354248</ele>
        <time>2011-11-20T08:48:44Z</time>
      </trkpt>
      <trkpt lat="47.28656" lon="-1.34115">
        <ele>42.9160156</ele>
        <time>2011-11-20T08:48:58Z</time>
      </trkpt>
      <trkpt lat="47.28613" lon="-1.34106">
        <ele>43.3966064</ele>
        <time>2011-11-20T08:49:09Z</time>
      </trkpt>
      <trkpt lat="47.28596" lon="-1.34103">
        <ele>44.838623</ele>
        <time>2011-11-20T08:49:17Z</time>
      </trkpt>
      <trkpt lat="47.28596" lon="-1.34103">
        <ele>44.838623</ele>
        <time>2011-11-20T08:49:18Z</time>
      </trkpt>
      <trkpt lat="47.28591" lon="-1.34103">
        <ele>44.838623</ele>
        <time>2011-11-20T08:49:21Z</time>
      </trkpt>
      <trkpt lat="47.28584" lon="-1.34071">
        <ele>44.3580322</ele>
        <time>2011-11-20T08:49:29Z</time>
      </trkpt>
      <trkpt lat="47.2857" lon="-1.34064">
        <ele>44.838623</ele>
        <time>2011-11-20T08:49:34Z</time>
      </trkpt>
      <trkpt lat="47.28487" lon="-1.34068">
        <ele>45.7999268</ele>
        <time>2011-11-20T08:49:54Z</time>
      </trkpt>
      <trkpt lat="47.28477" lon="-1.34051">
        <ele>44.838623</ele>
        <time>2011-11-20T08:49:58Z</time>
      </trkpt>
      <trkpt lat="47.28473" lon="-1.34033">
        <ele>44.838623</ele>
        <time>2011-11-20T08:50:02Z</time>
      </trkpt>
      <trkpt lat="47.28422" lon="-1.34038">
        <ele>45.3192139</ele>
        <time>2011-11-20T08:50:16Z</time>
      </trkpt>
      <trkpt lat="47.28383" lon="-1.34042">
        <ele>45.3192139</ele>
        <time>2011-11-20T08:50:26Z</time>
      </trkpt>
      <trkpt lat="47.28379" lon="-1.3399">
        <ele>45.7999268</ele>
        <time>2011-11-20T08:50:36Z</time>
      </trkpt>
      <trkpt lat="47.28369" lon="-1.33952">
        <ele>45.7999268</ele>
        <time>2011-11-20T08:50:43Z</time>
      </trkpt>
      <trkpt lat="47.28351" lon="-1.33905">
        <ele>45.3192139</ele>
        <time>2011-11-20T08:50:52Z</time>
      </trkpt>
      <trkpt lat="47.28306" lon="-1.33821">
        <ele>45.7999268</ele>
        <time>2011-11-20T08:51:11Z</time>
      </trkpt>
      <trkpt lat="47.28302" lon="-1.33812">
        <ele>46.2806396</ele>
        <time>2011-11-20T08:51:13Z</time>
      </trkpt>
      <trkpt lat="47.28261" lon="-1.33764">
        <ele>45.7999268</ele>
        <time>2011-11-20T08:51:26Z</time>
      </trkpt>
      <trkpt lat="47.28218" lon="-1.33723">
        <ele>45.3192139</ele>
        <time>2011-11-20T08:51:37Z</time>
      </trkpt>
      <trkpt lat="47.28211" lon="-1.33715">
        <ele>46.2806396</ele>
        <time>2011-11-20T08:51:39Z</time>
      </trkpt>
      <trkpt lat="47.28196" lon="-1.33701">
        <ele>46.2806396</ele>
        <time>2011-11-20T08:51:43Z</time>
      </trkpt>
      <trkpt lat="47.28195" lon="-1.33684">
        <ele>46.2806396</ele>
        <time>2011-11-20T08:51:47Z</time>
      </trkpt>
      <trkpt lat="47.28224" lon="-1.33569">
        <ele>48.2033691</ele>
        <time>2011-11-20T08:52:10Z</time>
      </trkpt>
      <trkpt lat="47.28231" lon="-1.33516">
        <ele>48.2033691</ele>
        <time>2011-11-20T08:52:21Z</time>
      </trkpt>
      <trkpt lat="47.28242" lon="-1.33474">
        <ele>47.7225342</ele>
        <time>2011-11-20T08:52:30Z</time>
      </trkpt>
      <trkpt lat="47.28235" lon="-1.33463">
        <ele>49.1645508</ele>
        <time>2011-11-20T08:52:34Z</time>
      </trkpt>
      <trkpt lat="47.28148" lon="-1.33445">
        <ele>50.6065674</ele>
        <time>2011-11-20T08:52:59Z</time>
      </trkpt>
      <trkpt lat="47.28064" lon="-1.33423">
        <ele>48.2033691</ele>
        <time>2011-11-20T08:53:18Z</time>
      </trkpt>
      <trkpt lat="47.27999" lon="-1.33409">
        <ele>47.2418213</ele>
        <time>2011-11-20T08:53:32Z</time>
      </trkpt>
      <trkpt lat="47.28008" lon="-1.33364">
        <ele>45.7999268</ele>
        <time>2011-11-20T08:53:41Z</time>
      </trkpt>
      <trkpt lat="47.28016" lon="-1.33319">
        <ele>44.838623</ele>
        <time>2011-11-20T08:53:49Z</time>
      </trkpt>
      <trkpt lat="47.28" lon="-1.33221">
        <ele>40.9934082</ele>
        <time>2011-11-20T08:54:03Z</time>
      </trkpt>
      <trkpt lat="47.27998" lon="-1.33212">
        <ele>40.9934082</ele>
        <time>2011-11-20T08:54:04Z</time>
      </trkpt>
      <trkpt lat="47.2799" lon="-1.33177">
        <ele>40.9934082</ele>
        <time>2011-11-20T08:54:11Z</time>
      </trkpt>
      <trkpt lat="47.27985" lon="-1.33146">
        <ele>37.6286621</ele>
        <time>2011-11-20T08:54:16Z</time>
      </trkpt>
      <trkpt lat="47.27983" lon="-1.33138">
        <ele>37.6286621</ele>
        <time>2011-11-20T08:54:17Z</time>
      </trkpt>
      <trkpt lat="47.27977" lon="-1.33089">
        <ele>39.0706787</ele>
        <time>2011-11-20T08:54:24Z</time>
      </trkpt>
      <trkpt lat="47.27986" lon="-1.33054">
        <ele>40.9934082</ele>
        <time>2011-11-20T08:54:30Z</time>
      </trkpt>
      <trkpt lat="47.28081" lon="-1.32969">
        <ele>42.4354248</ele>
        <time>2011-11-20T08:54:55Z</time>
      </trkpt>
      <trkpt lat="47.28099" lon="-1.32954">
        <ele>43.8773193</ele>
        <time>2011-11-20T08:55:00Z</time>
      </trkpt>
      <trkpt lat="47.28117" lon="-1.32955">
        <ele>43.3966064</ele>
        <time>2011-11-20T08:55:04Z</time>
      </trkpt>
      <trkpt lat="47.28145" lon="-1.32946">
        <ele>43.3966064</ele>
        <time>2011-11-20T08:55:10Z</time>
      </trkpt>
      <trkpt lat="47.28224" lon="-1.32887">
        <ele>46.7612305</ele>
        <time>2011-11-20T08:55:31Z</time>
      </trkpt>
      <trkpt lat="47.28312" lon="-1.32823">
        <ele>45.3192139</ele>
        <time>2011-11-20T08:55:51Z</time>
      </trkpt>
      <trkpt lat="47.28392" lon="-1.32774">
        <ele>46.7612305</ele>
        <time>2011-11-20T08:56:09Z</time>
      </trkpt>
      <trkpt lat="47.28407" lon="-1.3277">
        <ele>46.2806396</ele>
        <time>2011-11-20T08:56:12Z</time>
      </trkpt>
      <trkpt lat="47.28429" lon="-1.32752">
        <ele>46.7612305</ele>
        <time>2011-11-20T08:56:17Z</time>
      </trkpt>
      <trkpt lat="47.28509" lon="-1.32624">
        <ele>47.7225342</ele>
        <time>2011-11-20T08:56:40Z</time>
      </trkpt>
      <trkpt lat="47.28516" lon="-1.32612">
        <ele>47.7225342</ele>
        <time>2011-11-20T08:56:42Z</time>
      </trkpt>
      <trkpt lat="47.28518" lon="-1.32555">
        <ele>46.7612305</ele>
        <time>2011-11-20T08:56:50Z</time>
      </trkpt>
      <trkpt lat="47.28511" lon="-1.32458">
        <ele>49.6452637</ele>
        <time>2011-11-20T08:57:06Z</time>
      </trkpt>
      <trkpt lat="47.28524" lon="-1.32339">
        <ele>51.0871582</ele>
        <time>2011-11-20T08:57:26Z</time>
      </trkpt>
      <trkpt lat="47.28512" lon="-1.32258">
        <ele>54.4517822</ele>
        <time>2011-11-20T08:57:40Z</time>
      </trkpt>
      <trkpt lat="47.28481" lon="-1.32175">
        <ele>57.3358154</ele>
        <time>2011-11-20T08:57:56Z</time>
      </trkpt>
      <trkpt lat="47.28477" lon="-1.32165">
        <ele>57.8165283</ele>
        <time>2011-11-20T08:57:58Z</time>
      </trkpt>
      <trkpt lat="47.28485" lon="-1.32087">
        <ele>58.77771</ele>
        <time>2011-11-20T08:58:12Z</time>
      </trkpt>
      <trkpt lat="47.2851" lon="-1.31995">
        <ele>59.2584229</ele>
        <time>2011-11-20T08:58:28Z</time>
      </trkpt>
      <trkpt lat="47.2851" lon="-1.31977">
        <ele>59.2584229</ele>
        <time>2011-11-20T08:58:31Z</time>
      </trkpt>
      <trkpt lat="47.2849" lon="-1.31904">
        <ele>60.7003174</ele>
        <time>2011-11-20T08:58:45Z</time>
      </trkpt>
      <trkpt lat="47.28501" lon="-1.31884">
        <ele>61.1810303</ele>
        <time>2011-11-20T08:58:51Z</time>
      </trkpt>
      <trkpt lat="47.28588" lon="-1.31859">
        <ele>59.2584229</ele>
        <time>2011-11-20T08:59:11Z</time>
      </trkpt>
      <trkpt lat="47.28711" lon="-1.31823">
        <ele>56.3745117</ele>
        <time>2011-11-20T08:59:35Z</time>
      </trkpt>
      <trkpt lat="47.28739" lon="-1.31815">
        <ele>56.3745117</ele>
        <time>2011-11-20T08:59:40Z</time>
      </trkpt>
      <trkpt lat="47.28752" lon="-1.31794">
        <ele>55.4130859</ele>
        <time>2011-11-20T08:59:44Z</time>
      </trkpt>
      <trkpt lat="47.28754" lon="-1.31778">
        <ele>55.8937988</ele>
        <time>2011-11-20T08:59:46Z</time>
      </trkpt>
      <trkpt lat="47.28771" lon="-1.31762">
        <ele>56.3745117</ele>
        <time>2011-11-20T08:59:50Z</time>
      </trkpt>
      <trkpt lat="47.28854" lon="-1.31748">
        <ele>56.8551025</ele>
        <time>2011-11-20T09:00:07Z</time>
      </trkpt>
      <trkpt lat="47.28949" lon="-1.31728">
        <ele>55.8937988</ele>
        <time>2011-11-20T09:00:24Z</time>
      </trkpt>
      <trkpt lat="47.29004" lon="-1.31719">
        <ele>59.2584229</ele>
        <time>2011-11-20T09:00:36Z</time>
      </trkpt>
      <trkpt lat="47.29034" lon="-1.31713">
        <ele>60.7003174</ele>
        <time>2011-11-20T09:00:49Z</time>
      </trkpt>
      <trkpt lat="47.29035" lon="-1.31712">
        <ele>60.7003174</ele>
        <time>2011-11-20T09:01:14Z</time>
      </trkpt>
      <trkpt lat="47.29033" lon="-1.31711">
        <ele>61.1810303</ele>
        <time>2011-11-20T09:01:58Z</time>
      </trkpt>
      <trkpt lat="47.29033" lon="-1.3171">
        <ele>61.1810303</ele>
        <time>2011-11-20T09:02:46Z</time>
      </trkpt>
      <trkpt lat="47.29035" lon="-1.31707">
        <ele>61.1810303</ele>
        <time>2011-11-20T09:02:55Z</time>
      </trkpt>
      <trkpt lat="47.29036" lon="-1.31708">
        <ele>61.1810303</ele>
        <time>2011-11-20T09:08:42Z</time>
      </trkpt>
      <trkpt lat="47.29043" lon="-1.31706">
        <ele>60.2197266</ele>
        <time>2011-11-20T09:08:49Z</time>
      </trkpt>
      <trkpt lat="47.29045" lon="-1.31684">
        <ele>60.7003174</ele>
        <time>2011-11-20T09:08:56Z</time>
      </trkpt>
      <trkpt lat="47.29025" lon="-1.31643">
        <ele>60.7003174</ele>
        <time>2011-11-20T09:09:07Z</time>
      </trkpt>
      <trkpt lat="47.29018" lon="-1.31645">
        <ele>60.7003174</ele>
        <time>2011-11-20T09:09:10Z</time>
      </trkpt>
      <trkpt lat="47.28989" lon="-1.31627">
        <ele>60.7003174</ele>
        <time>2011-11-20T09:09:22Z</time>
      </trkpt>
      <trkpt lat="47.28959" lon="-1.31607">
        <ele>58.77771</ele>
        <time>2011-11-20T09:09:37Z</time>
      </trkpt>
      <trkpt lat="47.28911" lon="-1.31577">
        <ele>58.77771</ele>
        <time>2011-11-20T09:09:50Z</time>
      </trkpt>
      <trkpt lat="47.28821" lon="-1.31562">
        <ele>58.2971191</ele>
        <time>2011-11-20T09:10:09Z</time>
      </trkpt>
      <trkpt lat="47.287" lon="-1.31567">
        <ele>58.2971191</ele>
        <time>2011-11-20T09:10:34Z</time>
      </trkpt>
      <trkpt lat="47.28586" lon="-1.31573">
        <ele>60.7003174</ele>
        <time>2011-11-20T09:10:59Z</time>
      </trkpt>
      <trkpt lat="47.28523" lon="-1.31575">
        <ele>62.6229248</ele>
        <time>2011-11-20T09:11:14Z</time>
      </trkpt>
      <trkpt lat="47.28509" lon="-1.31589">
        <ele>63.1036377</ele>
        <time>2011-11-20T09:11:18Z</time>
      </trkpt>
      <trkpt lat="47.28447" lon="-1.31708">
        <ele>64.0650635</ele>
        <time>2011-11-20T09:11:40Z</time>
      </trkpt>
      <trkpt lat="47.28422" lon="-1.31703">
        <ele>64.0650635</ele>
        <time>2011-11-20T09:11:47Z</time>
      </trkpt>
      <trkpt lat="47.28417" lon="-1.31692">
        <ele>64.0650635</ele>
        <time>2011-11-20T09:11:49Z</time>
      </trkpt>
      <trkpt lat="47.28403" lon="-1.31672">
        <ele>64.5456543</ele>
        <time>2011-11-20T09:11:53Z</time>
      </trkpt>
      <trkpt lat="47.28386" lon="-1.31655">
        <ele>64.5456543</ele>
        <time>2011-11-20T09:11:57Z</time>
      </trkpt>
      <trkpt lat="47.28286" lon="-1.31618">
        <ele>65.0263672</ele>
        <time>2011-11-20T09:12:17Z</time>
      </trkpt>
      <trkpt lat="47.28262" lon="-1.31612">
        <ele>65.0263672</ele>
        <time>2011-11-20T09:12:22Z</time>
      </trkpt>
      <trkpt lat="47.28238" lon="-1.31617">
        <ele>65.5070801</ele>
        <time>2011-11-20T09:12:27Z</time>
      </trkpt>
      <trkpt lat="47.2816" lon="-1.31686">
        <ele>65.9876709</ele>
        <time>2011-11-20T09:12:46Z</time>
      </trkpt>
      <trkpt lat="47.2809" lon="-1.31734">
        <ele>66.9489746</ele>
        <time>2011-11-20T09:13:02Z</time>
      </trkpt>
      <trkpt lat="47.28075" lon="-1.31728">
        <ele>66.9489746</ele>
        <time>2011-11-20T09:13:06Z</time>
      </trkpt>
      <trkpt lat="47.28066" lon="-1.31737">
        <ele>67.9102783</ele>
        <time>2011-11-20T09:13:11Z</time>
      </trkpt>
      <trkpt lat="47.28004" lon="-1.31779">
        <ele>67.4296875</ele>
        <time>2011-11-20T09:13:27Z</time>
      </trkpt>
      <trkpt lat="47.27913" lon="-1.31841">
        <ele>66.4682617</ele>
        <time>2011-11-20T09:13:46Z</time>
      </trkpt>
      <trkpt lat="47.279" lon="-1.31849">
        <ele>65.0263672</ele>
        <time>2011-11-20T09:13:48Z</time>
      </trkpt>
      <trkpt lat="47.27886" lon="-1.31859">
        <ele>64.0650635</ele>
        <time>2011-11-20T09:13:50Z</time>
      </trkpt>
      <trkpt lat="47.27844" lon="-1.31918">
        <ele>64.0650635</ele>
        <time>2011-11-20T09:13:58Z</time>
      </trkpt>
      <trkpt lat="47.27811" lon="-1.3198">
        <ele>64.0650635</ele>
        <time>2011-11-20T09:14:08Z</time>
      </trkpt>
      <trkpt lat="47.27791" lon="-1.32013">
        <ele>64.0650635</ele>
        <time>2011-11-20T09:14:18Z</time>
      </trkpt>
      <trkpt lat="47.27791" lon="-1.32009">
        <ele>64.0650635</ele>
        <time>2011-11-20T09:14:23Z</time>
      </trkpt>
      <trkpt lat="47.27786" lon="-1.32005">
        <ele>63.5843506</ele>
        <time>2011-11-20T09:14:27Z</time>
      </trkpt>
      <trkpt lat="47.27785" lon="-1.32002">
        <ele>64.0650635</ele>
        <time>2011-11-20T09:14:29Z</time>
      </trkpt>
      <trkpt lat="47.27795" lon="-1.32007">
        <ele>63.5843506</ele>
        <time>2011-11-20T09:14:37Z</time>
      </trkpt>
      <trkpt lat="47.27801" lon="-1.32001">
        <ele>63.5843506</ele>
        <time>2011-11-20T09:14:41Z</time>
      </trkpt>
      <trkpt lat="47.27828" lon="-1.31953">
        <ele>63.5843506</ele>
        <time>2011-11-20T09:14:50Z</time>
      </trkpt>
      <trkpt lat="47.27871" lon="-1.31877">
        <ele>64.5456543</ele>
        <time>2011-11-20T09:15:04Z</time>
      </trkpt>
      <trkpt lat="47.27935" lon="-1.3183">
        <ele>65.9876709</ele>
        <time>2011-11-20T09:15:17Z</time>
      </trkpt>
      <trkpt lat="47.27979" lon="-1.318">
        <ele>66.4682617</ele>
        <time>2011-11-20T09:15:26Z</time>
      </trkpt>
      <trkpt lat="47.2806" lon="-1.31743">
        <ele>66.4682617</ele>
        <time>2011-11-20T09:15:42Z</time>
      </trkpt>
      <trkpt lat="47.28069" lon="-1.31734">
        <ele>65.9876709</ele>
        <time>2011-11-20T09:15:44Z</time>
      </trkpt>
      <trkpt lat="47.28077" lon="-1.31705">
        <ele>66.4682617</ele>
        <time>2011-11-20T09:15:49Z</time>
      </trkpt>
      <trkpt lat="47.28075" lon="-1.31691">
        <ele>66.4682617</ele>
        <time>2011-11-20T09:15:51Z</time>
      </trkpt>
      <trkpt lat="47.28069" lon="-1.31679">
        <ele>65.9876709</ele>
        <time>2011-11-20T09:15:53Z</time>
      </trkpt>
      <trkpt lat="47.28057" lon="-1.31649">
        <ele>66.4682617</ele>
        <time>2011-11-20T09:15:58Z</time>
      </trkpt>
      <trkpt lat="47.28053" lon="-1.3162">
        <ele>65.9876709</ele>
        <time>2011-11-20T09:16:02Z</time>
      </trkpt>
      <trkpt lat="47.28038" lon="-1.31562">
        <ele>65.9876709</ele>
        <time>2011-11-20T09:16:11Z</time>
      </trkpt>
      <trkpt lat="47.28035" lon="-1.31543">
        <ele>65.9876709</ele>
        <time>2011-11-20T09:16:14Z</time>
      </trkpt>
      <trkpt lat="47.28023" lon="-1.31499">
        <ele>65.5070801</ele>
        <time>2011-11-20T09:16:22Z</time>
      </trkpt>
      <trkpt lat="47.2802" lon="-1.31463">
        <ele>65.5070801</ele>
        <time>2011-11-20T09:16:28Z</time>
      </trkpt>
      <trkpt lat="47.28017" lon="-1.3141">
        <ele>65.5070801</ele>
        <time>2011-11-20T09:16:36Z</time>
      </trkpt>
      <trkpt lat="47.2801" lon="-1.31367">
        <ele>65.0263672</ele>
        <time>2011-11-20T09:16:43Z</time>
      </trkpt>
      <trkpt lat="47.28004" lon="-1.31323">
        <ele>65.0263672</ele>
        <time>2011-11-20T09:16:50Z</time>
      </trkpt>
      <trkpt lat="47.27997" lon="-1.31237">
        <ele>63.5843506</ele>
        <time>2011-11-20T09:17:04Z</time>
      </trkpt>
      <trkpt lat="47.28012" lon="-1.31221">
        <ele>63.5843506</ele>
        <time>2011-11-20T09:17:12Z</time>
      </trkpt>
      <trkpt lat="47.28013" lon="-1.31213">
        <ele>62.6229248</ele>
        <time>2011-11-20T09:17:14Z</time>
      </trkpt>
      <trkpt lat="47.28009" lon="-1.31153">
        <ele>63.5843506</ele>
        <time>2011-11-20T09:17:25Z</time>
      </trkpt>
      <trkpt lat="47.28006" lon="-1.31133">
        <ele>63.5843506</ele>
        <time>2011-11-20T09:17:28Z</time>
      </trkpt>
      <trkpt lat="47.28006" lon="-1.31114">
        <ele>64.0650635</ele>
        <time>2011-11-20T09:17:31Z</time>
      </trkpt>
      <trkpt lat="47.28005" lon="-1.31101">
        <ele>64.0650635</ele>
        <time>2011-11-20T09:17:33Z</time>
      </trkpt>
      <trkpt lat="47.28008" lon="-1.31083">
        <ele>64.0650635</ele>
        <time>2011-11-20T09:17:36Z</time>
      </trkpt>
      <trkpt lat="47.28009" lon="-1.31062">
        <ele>65.0263672</ele>
        <time>2011-11-20T09:17:41Z</time>
      </trkpt>
      <trkpt lat="47.28014" lon="-1.31043">
        <ele>64.5456543</ele>
        <time>2011-11-20T09:17:45Z</time>
      </trkpt>
      <trkpt lat="47.28019" lon="-1.3102">
        <ele>65.0263672</ele>
        <time>2011-11-20T09:17:50Z</time>
      </trkpt>
      <trkpt lat="47.28033" lon="-1.30926">
        <ele>66.9489746</ele>
        <time>2011-11-20T09:18:06Z</time>
      </trkpt>
      <trkpt lat="47.28042" lon="-1.30864">
        <ele>67.9102783</ele>
        <time>2011-11-20T09:18:18Z</time>
      </trkpt>
      <trkpt lat="47.28042" lon="-1.30856">
        <ele>68.3908691</ele>
        <time>2011-11-20T09:18:20Z</time>
      </trkpt>
      <trkpt lat="47.28048" lon="-1.30814">
        <ele>70.3134766</ele>
        <time>2011-11-20T09:18:30Z</time>
      </trkpt>
      <trkpt lat="47.28073" lon="-1.30721">
        <ele>71.2749023</ele>
        <time>2011-11-20T09:18:48Z</time>
      </trkpt>
      <trkpt lat="47.28076" lon="-1.30709">
        <ele>71.7554932</ele>
        <time>2011-11-20T09:18:50Z</time>
      </trkpt>
      <trkpt lat="47.28089" lon="-1.30602">
        <ele>73.1976318</ele>
        <time>2011-11-20T09:19:07Z</time>
      </trkpt>
      <trkpt lat="47.28087" lon="-1.30577">
        <ele>73.6782227</ele>
        <time>2011-11-20T09:19:11Z</time>
      </trkpt>
      <trkpt lat="47.28056" lon="-1.30505">
        <ele>74.6395264</ele>
        <time>2011-11-20T09:19:25Z</time>
      </trkpt>
      <trkpt lat="47.28034" lon="-1.30467">
        <ele>74.1588135</ele>
        <time>2011-11-20T09:19:34Z</time>
      </trkpt>
      <trkpt lat="47.28017" lon="-1.30434">
        <ele>75.1202393</ele>
        <time>2011-11-20T09:19:41Z</time>
      </trkpt>
      <trkpt lat="47.27987" lon="-1.30312">
        <ele>74.1588135</ele>
        <time>2011-11-20T09:20:00Z</time>
      </trkpt>
      <trkpt lat="47.27971" lon="-1.30228">
        <ele>73.6782227</ele>
        <time>2011-11-20T09:20:12Z</time>
      </trkpt>
      <trkpt lat="47.27957" lon="-1.30184">
        <ele>74.1588135</ele>
        <time>2011-11-20T09:20:19Z</time>
      </trkpt>
      <trkpt lat="47.27953" lon="-1.30173">
        <ele>75.1202393</ele>
        <time>2011-11-20T09:20:21Z</time>
      </trkpt>
      <trkpt lat="47.27889" lon="-1.30037">
        <ele>75.6008301</ele>
        <time>2011-11-20T09:20:45Z</time>
      </trkpt>
      <trkpt lat="47.27825" lon="-1.29896">
        <ele>77.0428467</ele>
        <time>2011-11-20T09:21:10Z</time>
      </trkpt>
      <trkpt lat="47.27813" lon="-1.29871">
        <ele>77.0428467</ele>
        <time>2011-11-20T09:21:15Z</time>
      </trkpt>
      <trkpt lat="47.27793" lon="-1.29864">
        <ele>77.0428467</ele>
        <time>2011-11-20T09:21:20Z</time>
      </trkpt>
      <trkpt lat="47.2771" lon="-1.29907">
        <ele>77.5234375</ele>
        <time>2011-11-20T09:21:38Z</time>
      </trkpt>
      <trkpt lat="47.27646" lon="-1.29941">
        <ele>77.5234375</ele>
        <time>2011-11-20T09:21:53Z</time>
      </trkpt>
      <trkpt lat="47.27598" lon="-1.29949">
        <ele>77.5234375</ele>
        <time>2011-11-20T09:22:04Z</time>
      </trkpt>
      <trkpt lat="47.27502" lon="-1.2996">
        <ele>77.0428467</ele>
        <time>2011-11-20T09:22:23Z</time>
      </trkpt>
      <trkpt lat="47.27432" lon="-1.2997">
        <ele>76.5621338</ele>
        <time>2011-11-20T09:22:37Z</time>
      </trkpt>
      <trkpt lat="47.27412" lon="-1.29984">
        <ele>77.0428467</ele>
        <time>2011-11-20T09:22:41Z</time>
      </trkpt>
      <trkpt lat="47.27384" lon="-1.30013">
        <ele>77.0428467</ele>
        <time>2011-11-20T09:22:48Z</time>
      </trkpt>
      <trkpt lat="47.27365" lon="-1.30023">
        <ele>76.0814209</ele>
        <time>2011-11-20T09:22:52Z</time>
      </trkpt>
      <trkpt lat="47.2735" lon="-1.30024">
        <ele>76.5621338</ele>
        <time>2011-11-20T09:22:55Z</time>
      </trkpt>
      <trkpt lat="47.2731" lon="-1.30011">
        <ele>76.0814209</ele>
        <time>2011-11-20T09:23:03Z</time>
      </trkpt>
      <trkpt lat="47.2728" lon="-1.29986">
        <ele>74.6395264</ele>
        <time>2011-11-20T09:23:09Z</time>
      </trkpt>
      <trkpt lat="47.27237" lon="-1.29927">
        <ele>74.6395264</ele>
        <time>2011-11-20T09:23:20Z</time>
      </trkpt>
      <trkpt lat="47.27223" lon="-1.29906">
        <ele>73.1976318</ele>
        <time>2011-11-20T09:23:24Z</time>
      </trkpt>
      <trkpt lat="47.27137" lon="-1.29803">
        <ele>72.7169189</ele>
        <time>2011-11-20T09:23:44Z</time>
      </trkpt>
      <trkpt lat="47.27119" lon="-1.29781">
        <ele>72.7169189</ele>
        <time>2011-11-20T09:23:49Z</time>
      </trkpt>
      <trkpt lat="47.27108" lon="-1.29795">
        <ele>73.1976318</ele>
        <time>2011-11-20T09:23:54Z</time>
      </trkpt>
      <trkpt lat="47.27085" lon="-1.2988">
        <ele>73.1976318</ele>
        <time>2011-11-20T09:24:09Z</time>
      </trkpt>
      <trkpt lat="47.27075" lon="-1.29878">
        <ele>72.2362061</ele>
        <time>2011-11-20T09:24:13Z</time>
      </trkpt>
      <trkpt lat="47.27019" lon="-1.29795">
        <ele>71.2749023</ele>
        <time>2011-11-20T09:24:30Z</time>
      </trkpt>
      <trkpt lat="47.27019" lon="-1.29732">
        <ele>69.8328857</ele>
        <time>2011-11-20T09:24:39Z</time>
      </trkpt>
      <trkpt lat="47.27009" lon="-1.29691">
        <ele>69.8328857</ele>
        <time>2011-11-20T09:24:45Z</time>
      </trkpt>
      <trkpt lat="47.26998" lon="-1.29676">
        <ele>69.8328857</ele>
        <time>2011-11-20T09:24:48Z</time>
      </trkpt>
      <trkpt lat="47.26987" lon="-1.29651">
        <ele>69.8328857</ele>
        <time>2011-11-20T09:24:52Z</time>
      </trkpt>
      <trkpt lat="47.26976" lon="-1.29608">
        <ele>67.9102783</ele>
        <time>2011-11-20T09:24:58Z</time>
      </trkpt>
      <trkpt lat="47.26913" lon="-1.29522">
        <ele>65.9876709</ele>
        <time>2011-11-20T09:25:13Z</time>
      </trkpt>
      <trkpt lat="47.26874" lon="-1.29472">
        <ele>64.5456543</ele>
        <time>2011-11-20T09:25:25Z</time>
      </trkpt>
      <trkpt lat="47.26872" lon="-1.2947">
        <ele>64.5456543</ele>
        <time>2011-11-20T09:25:26Z</time>
      </trkpt>
      <trkpt lat="47.26842" lon="-1.29427">
        <ele>62.6229248</ele>
        <time>2011-11-20T09:25:35Z</time>
      </trkpt>
      <trkpt lat="47.26833" lon="-1.29399">
        <ele>62.142334</ele>
        <time>2011-11-20T09:25:39Z</time>
      </trkpt>
      <trkpt lat="47.26831" lon="-1.29376">
        <ele>61.6617432</ele>
        <time>2011-11-20T09:25:42Z</time>
      </trkpt>
      <trkpt lat="47.26834" lon="-1.29334">
        <ele>60.7003174</ele>
        <time>2011-11-20T09:25:47Z</time>
      </trkpt>
      <trkpt lat="47.26829" lon="-1.29291">
        <ele>58.77771</ele>
        <time>2011-11-20T09:25:52Z</time>
      </trkpt>
      <trkpt lat="47.26823" lon="-1.29273">
        <ele>58.2971191</ele>
        <time>2011-11-20T09:25:54Z</time>
      </trkpt>
      <trkpt lat="47.26807" lon="-1.2923">
        <ele>58.2971191</ele>
        <time>2011-11-20T09:26:04Z</time>
      </trkpt>
      <trkpt lat="47.26809" lon="-1.29232">
        <ele>58.2971191</ele>
        <time>2011-11-20T09:26:14Z</time>
      </trkpt>
      <trkpt lat="47.26819" lon="-1.29262">
        <ele>59.2584229</ele>
        <time>2011-11-20T09:26:31Z</time>
      </trkpt>
      <trkpt lat="47.26824" lon="-1.29268">
        <ele>58.77771</ele>
        <time>2011-11-20T09:26:44Z</time>
      </trkpt>
      <trkpt lat="47.26825" lon="-1.29266">
        <ele>58.77771</ele>
        <time>2011-11-20T09:27:04Z</time>
      </trkpt>
      <trkpt lat="47.26822" lon="-1.29242">
        <ele>54.932373</ele>
        <time>2011-11-20T09:27:15Z</time>
      </trkpt>
      <trkpt lat="47.26819" lon="-1.29236">
        <ele>54.4517822</ele>
        <time>2011-11-20T09:27:28Z</time>
      </trkpt>
      <trkpt lat="47.26815" lon="-1.29226">
        <ele>53.0097656</ele>
        <time>2011-11-20T09:27:41Z</time>
      </trkpt>
      <trkpt lat="47.26801" lon="-1.29199">
        <ele>51.0871582</ele>
        <time>2011-11-20T09:27:52Z</time>
      </trkpt>
      <trkpt lat="47.26794" lon="-1.29184">
        <ele>50.1259766</ele>
        <time>2011-11-20T09:27:56Z</time>
      </trkpt>
      <trkpt lat="47.26788" lon="-1.29168">
        <ele>48.68396</ele>
        <time>2011-11-20T09:28:01Z</time>
      </trkpt>
      <trkpt lat="47.26769" lon="-1.29164">
        <ele>48.2033691</ele>
        <time>2011-11-20T09:28:09Z</time>
      </trkpt>
      <trkpt lat="47.26745" lon="-1.29171">
        <ele>48.68396</ele>
        <time>2011-11-20T09:28:17Z</time>
      </trkpt>
      <trkpt lat="47.26738" lon="-1.29163">
        <ele>49.1645508</ele>
        <time>2011-11-20T09:28:21Z</time>
      </trkpt>
      <trkpt lat="47.26736" lon="-1.29158">
        <ele>49.6452637</ele>
        <time>2011-11-20T09:28:23Z</time>
      </trkpt>
      <trkpt lat="47.26714" lon="-1.29143">
        <ele>51.0871582</ele>
        <time>2011-11-20T09:28:32Z</time>
      </trkpt>
      <trkpt lat="47.26697" lon="-1.29137">
        <ele>52.048584</ele>
        <time>2011-11-20T09:28:41Z</time>
      </trkpt>
      <trkpt lat="47.26689" lon="-1.29137">
        <ele>53.0097656</ele>
        <time>2011-11-20T09:28:51Z</time>
      </trkpt>
      <trkpt lat="47.26681" lon="-1.29131">
        <ele>55.8937988</ele>
        <time>2011-11-20T09:29:03Z</time>
      </trkpt>
      <trkpt lat="47.26672" lon="-1.29124">
        <ele>57.8165283</ele>
        <time>2011-11-20T09:29:13Z</time>
      </trkpt>
      <trkpt lat="47.26659" lon="-1.29115">
        <ele>59.7391357</ele>
        <time>2011-11-20T09:29:26Z</time>
      </trkpt>
      <trkpt lat="47.26649" lon="-1.29105">
        <ele>61.6617432</ele>
        <time>2011-11-20T09:29:40Z</time>
      </trkpt>
      <trkpt lat="47.26633" lon="-1.2909">
        <ele>63.1036377</ele>
        <time>2011-11-20T09:29:52Z</time>
      </trkpt>
      <trkpt lat="47.26626" lon="-1.29084">
        <ele>63.5843506</ele>
        <time>2011-11-20T09:29:55Z</time>
      </trkpt>
      <trkpt lat="47.26623" lon="-1.29077">
        <ele>63.5843506</ele>
        <time>2011-11-20T09:29:59Z</time>
      </trkpt>
      <trkpt lat="47.26613" lon="-1.29052">
        <ele>65.0263672</ele>
        <time>2011-11-20T09:30:11Z</time>
      </trkpt>
      <trkpt lat="47.26636" lon="-1.29016">
        <ele>63.5843506</ele>
        <time>2011-11-20T09:30:22Z</time>
      </trkpt>
      <trkpt lat="47.26645" lon="-1.29004">
        <ele>63.5843506</ele>
        <time>2011-11-20T09:30:25Z</time>
      </trkpt>
      <trkpt lat="47.26685" lon="-1.28906">
        <ele>62.6229248</ele>
        <time>2011-11-20T09:30:42Z</time>
      </trkpt>
      <trkpt lat="47.26718" lon="-1.28807">
        <ele>60.7003174</ele>
        <time>2011-11-20T09:30:57Z</time>
      </trkpt>
      <trkpt lat="47.26742" lon="-1.28756">
        <ele>58.77771</ele>
        <time>2011-11-20T09:31:05Z</time>
      </trkpt>
      <trkpt lat="47.2677" lon="-1.28731">
        <ele>59.2584229</ele>
        <time>2011-11-20T09:31:11Z</time>
      </trkpt>
      <trkpt lat="47.26784" lon="-1.28724">
        <ele>59.7391357</ele>
        <time>2011-11-20T09:31:14Z</time>
      </trkpt>
      <trkpt lat="47.26797" lon="-1.28707">
        <ele>59.2584229</ele>
        <time>2011-11-20T09:31:18Z</time>
      </trkpt>
      <trkpt lat="47.26871" lon="-1.28572">
        <ele>60.7003174</ele>
        <time>2011-11-20T09:31:43Z</time>
      </trkpt>
      <trkpt lat="47.26887" lon="-1.28548">
        <ele>59.7391357</ele>
        <time>2011-11-20T09:31:48Z</time>
      </trkpt>
      <trkpt lat="47.26901" lon="-1.2853">
        <ele>60.2197266</ele>
        <time>2011-11-20T09:31:52Z</time>
      </trkpt>
      <trkpt lat="47.26935" lon="-1.2848">
        <ele>60.2197266</ele>
        <time>2011-11-20T09:32:02Z</time>
      </trkpt>
      <trkpt lat="47.26966" lon="-1.28457">
        <ele>58.2971191</ele>
        <time>2011-11-20T09:32:09Z</time>
      </trkpt>
      <trkpt lat="47.26988" lon="-1.28441">
        <ele>58.2971191</ele>
        <time>2011-11-20T09:32:13Z</time>
      </trkpt>
      <trkpt lat="47.27002" lon="-1.28421">
        <ele>57.8165283</ele>
        <time>2011-11-20T09:32:17Z</time>
      </trkpt>
      <trkpt lat="47.27008" lon="-1.28407">
        <ele>56.8551025</ele>
        <time>2011-11-20T09:32:19Z</time>
      </trkpt>
      <trkpt lat="47.27015" lon="-1.28363">
        <ele>56.3745117</ele>
        <time>2011-11-20T09:32:25Z</time>
      </trkpt>
      <trkpt lat="47.27012" lon="-1.28311">
        <ele>55.4130859</ele>
        <time>2011-11-20T09:32:32Z</time>
      </trkpt>
      <trkpt lat="47.27012" lon="-1.28262">
        <ele>53.4904785</ele>
        <time>2011-11-20T09:32:38Z</time>
      </trkpt>
      <trkpt lat="47.27016" lon="-1.28231">
        <ele>53.4904785</ele>
        <time>2011-11-20T09:32:43Z</time>
      </trkpt>
      <trkpt lat="47.27019" lon="-1.28219">
        <ele>52.048584</ele>
        <time>2011-11-20T09:32:45Z</time>
      </trkpt>
      <trkpt lat="47.27025" lon="-1.28201">
        <ele>49.6452637</ele>
        <time>2011-11-20T09:32:48Z</time>
      </trkpt>
      <trkpt lat="47.27032" lon="-1.28179">
        <ele>46.7612305</ele>
        <time>2011-11-20T09:32:52Z</time>
      </trkpt>
      <trkpt lat="47.2704" lon="-1.28159">
        <ele>44.3580322</ele>
        <time>2011-11-20T09:32:55Z</time>
      </trkpt>
      <trkpt lat="47.27042" lon="-1.2815">
        <ele>41.9547119</ele>
        <time>2011-11-20T09:32:56Z</time>
      </trkpt>
      <trkpt lat="47.27046" lon="-1.28124">
        <ele>41.9547119</ele>
        <time>2011-11-20T09:33:00Z</time>
      </trkpt>
      <trkpt lat="47.27062" lon="-1.28094">
        <ele>39.0706787</ele>
        <time>2011-11-20T09:33:04Z</time>
      </trkpt>
      <trkpt lat="47.27079" lon="-1.28059">
        <ele>37.6286621</ele>
        <time>2011-11-20T09:33:08Z</time>
      </trkpt>
      <trkpt lat="47.27086" lon="-1.28042">
        <ele>39.0706787</ele>
        <time>2011-11-20T09:33:11Z</time>
      </trkpt>
      <trkpt lat="47.27088" lon="-1.28042">
        <ele>40.0321045</ele>
        <time>2011-11-20T09:33:12Z</time>
      </trkpt>
      <trkpt lat="47.27093" lon="-1.28049">
        <ele>36.6674805</ele>
        <time>2011-11-20T09:33:16Z</time>
      </trkpt>
      <trkpt lat="47.27098" lon="-1.28053">
        <ele>34.2641602</ele>
        <time>2011-11-20T09:33:18Z</time>
      </trkpt>
      <trkpt lat="47.27102" lon="-1.28055">
        <ele>32.3415527</ele>
        <time>2011-11-20T09:33:20Z</time>
      </trkpt>
      <trkpt lat="47.27109" lon="-1.28056">
        <ele>29.9381104</ele>
        <time>2011-11-20T09:33:22Z</time>
      </trkpt>
      <trkpt lat="47.27118" lon="-1.28059">
        <ele>26.5736084</ele>
        <time>2011-11-20T09:33:24Z</time>
      </trkpt>
      <trkpt lat="47.27122" lon="-1.28062">
        <ele>26.5736084</ele>
        <time>2011-11-20T09:33:25Z</time>
      </trkpt>
      <trkpt lat="47.27131" lon="-1.28069">
        <ele>26.5736084</ele>
        <time>2011-11-20T09:33:27Z</time>
      </trkpt>
      <trkpt lat="47.27156" lon="-1.28062">
        <ele>23.6895752</ele>
        <time>2011-11-20T09:33:33Z</time>
      </trkpt>
      <trkpt lat="47.27177" lon="-1.28029">
        <ele>26.0928955</ele>
        <time>2011-11-20T09:33:41Z</time>
      </trkpt>
      <trkpt lat="47.27185" lon="-1.28014">
        <ele>25.1317139</ele>
        <time>2011-11-20T09:33:44Z</time>
      </trkpt>
      <trkpt lat="47.27188" lon="-1.28001">
        <ele>24.1702881</ele>
        <time>2011-11-20T09:33:46Z</time>
      </trkpt>
      <trkpt lat="47.2719" lon="-1.27995">
        <ele>23.6895752</ele>
        <time>2011-11-20T09:33:47Z</time>
      </trkpt>
      <trkpt lat="47.27219" lon="-1.27936">
        <ele>21.7669678</ele>
        <time>2011-11-20T09:34:01Z</time>
      </trkpt>
      <trkpt lat="47.2724" lon="-1.27905">
        <ele>20.3249512</ele>
        <time>2011-11-20T09:34:10Z</time>
      </trkpt>
      <trkpt lat="47.27243" lon="-1.27916">
        <ele>20.3249512</ele>
        <time>2011-11-20T09:34:14Z</time>
      </trkpt>
      <trkpt lat="47.27242" lon="-1.27923">
        <ele>19.8443604</ele>
        <time>2011-11-20T09:34:16Z</time>
      </trkpt>
      <trkpt lat="47.27235" lon="-1.27958">
        <ele>21.286377</ele>
        <time>2011-11-20T09:34:26Z</time>
      </trkpt>
      <trkpt lat="47.27228" lon="-1.27986">
        <ele>22.2475586</ele>
        <time>2011-11-20T09:34:35Z</time>
      </trkpt>
      <trkpt lat="47.27235" lon="-1.27983">
        <ele>24.651001</ele>
        <time>2011-11-20T09:34:48Z</time>
      </trkpt>
      <trkpt lat="47.27235" lon="-1.27982">
        <ele>24.651001</ele>
        <time>2011-11-20T09:34:49Z</time>
      </trkpt>
      <trkpt lat="47.27245" lon="-1.27966">
        <ele>26.5736084</ele>
        <time>2011-11-20T09:34:56Z</time>
      </trkpt>
      <trkpt lat="47.27248" lon="-1.27956">
        <ele>27.5349121</ele>
        <time>2011-11-20T09:34:59Z</time>
      </trkpt>
      <trkpt lat="47.27259" lon="-1.27939">
        <ele>28.4962158</ele>
        <time>2011-11-20T09:35:06Z</time>
      </trkpt>
      <trkpt lat="47.27269" lon="-1.27937">
        <ele>29.4575195</ele>
        <time>2011-11-20T09:35:16Z</time>
      </trkpt>
      <trkpt lat="47.27287" lon="-1.27942">
        <ele>28.9769287</ele>
        <time>2011-11-20T09:35:27Z</time>
      </trkpt>
      <trkpt lat="47.2729" lon="-1.27943">
        <ele>28.0155029</ele>
        <time>2011-11-20T09:35:29Z</time>
      </trkpt>
      <trkpt lat="47.27302" lon="-1.27954">
        <ele>27.0543213</ele>
        <time>2011-11-20T09:35:35Z</time>
      </trkpt>
      <trkpt lat="47.27304" lon="-1.27959">
        <ele>27.0543213</ele>
        <time>2011-11-20T09:35:37Z</time>
      </trkpt>
      <trkpt lat="47.27331" lon="-1.2799">
        <ele>27.5349121</ele>
        <time>2011-11-20T09:35:47Z</time>
      </trkpt>
      <trkpt lat="47.27333" lon="-1.27993">
        <ele>28.4962158</ele>
        <time>2011-11-20T09:35:49Z</time>
      </trkpt>
      <trkpt lat="47.27346" lon="-1.2801">
        <ele>28.4962158</ele>
        <time>2011-11-20T09:35:57Z</time>
      </trkpt>
      <trkpt lat="47.27351" lon="-1.28015">
        <ele>28.9769287</ele>
        <time>2011-11-20T09:36:00Z</time>
      </trkpt>
      <trkpt lat="47.27353" lon="-1.28021">
        <ele>30.4188232</ele>
        <time>2011-11-20T09:36:03Z</time>
      </trkpt>
      <trkpt lat="47.27354" lon="-1.28022">
        <ele>30.8995361</ele>
        <time>2011-11-20T09:36:04Z</time>
      </trkpt>
      <trkpt lat="47.2736" lon="-1.28035">
        <ele>33.7834473</ele>
        <time>2011-11-20T09:36:16Z</time>
      </trkpt>
      <trkpt lat="47.27362" lon="-1.28041">
        <ele>35.2254639</ele>
        <time>2011-11-20T09:36:28Z</time>
      </trkpt>
      <trkpt lat="47.27362" lon="-1.28041">
        <ele>36.1867676</ele>
        <time>2011-11-20T09:36:29Z</time>
      </trkpt>
      <trkpt lat="47.27366" lon="-1.2805">
        <ele>38.5900879</ele>
        <time>2011-11-20T09:36:39Z</time>
      </trkpt>
      <trkpt lat="47.27373" lon="-1.28053">
        <ele>38.5900879</ele>
        <time>2011-11-20T09:36:44Z</time>
      </trkpt>
      <trkpt lat="47.27383" lon="-1.28058">
        <ele>36.1867676</ele>
        <time>2011-11-20T09:36:47Z</time>
      </trkpt>
      <trkpt lat="47.27394" lon="-1.28062">
        <ele>36.6674805</ele>
        <time>2011-11-20T09:36:51Z</time>
      </trkpt>
      <trkpt lat="47.27396" lon="-1.28063">
        <ele>37.6286621</ele>
        <time>2011-11-20T09:36:52Z</time>
      </trkpt>
      <trkpt lat="47.27419" lon="-1.28067">
        <ele>39.5512695</ele>
        <time>2011-11-20T09:37:00Z</time>
      </trkpt>
      <trkpt lat="47.27435" lon="-1.28062">
        <ele>37.1480713</ele>
        <time>2011-11-20T09:37:06Z</time>
      </trkpt>
      <trkpt lat="47.27441" lon="-1.28063">
        <ele>37.6286621</ele>
        <time>2011-11-20T09:37:19Z</time>
      </trkpt>
      <trkpt lat="47.27455" lon="-1.2806">
        <ele>37.1480713</ele>
        <time>2011-11-20T09:37:39Z</time>
      </trkpt>
      <trkpt lat="47.27454" lon="-1.28059">
        <ele>37.6286621</ele>
        <time>2011-11-20T09:37:47Z</time>
      </trkpt>
      <trkpt lat="47.27458" lon="-1.28061">
        <ele>38.109375</ele>
        <time>2011-11-20T09:37:51Z</time>
      </trkpt>
      <trkpt lat="47.2746" lon="-1.28059">
        <ele>38.109375</ele>
        <time>2011-11-20T09:37:53Z</time>
      </trkpt>
      <trkpt lat="47.2747" lon="-1.28064">
        <ele>39.0706787</ele>
        <time>2011-11-20T09:37:58Z</time>
      </trkpt>
      <trkpt lat="47.27481" lon="-1.28061">
        <ele>39.0706787</ele>
        <time>2011-11-20T09:38:05Z</time>
      </trkpt>
      <trkpt lat="47.27494" lon="-1.28061">
        <ele>41.9547119</ele>
        <time>2011-11-20T09:38:15Z</time>
      </trkpt>
      <trkpt lat="47.27516" lon="-1.28057">
        <ele>44.838623</ele>
        <time>2011-11-20T09:38:26Z</time>
      </trkpt>
      <trkpt lat="47.27515" lon="-1.2807">
        <ele>49.1645508</ele>
        <time>2011-11-20T09:38:33Z</time>
      </trkpt>
      <trkpt lat="47.27518" lon="-1.28074">
        <ele>49.1645508</ele>
        <time>2011-11-20T09:38:36Z</time>
      </trkpt>
      <trkpt lat="47.27527" lon="-1.28078">
        <ele>49.6452637</ele>
        <time>2011-11-20T09:38:41Z</time>
      </trkpt>
      <trkpt lat="47.27552" lon="-1.28112">
        <ele>50.6065674</ele>
        <time>2011-11-20T09:38:57Z</time>
      </trkpt>
      <trkpt lat="47.27563" lon="-1.28155">
        <ele>52.048584</ele>
        <time>2011-11-20T09:39:10Z</time>
      </trkpt>
      <trkpt lat="47.27572" lon="-1.2821">
        <ele>54.4517822</ele>
        <time>2011-11-20T09:39:24Z</time>
      </trkpt>
      <trkpt lat="47.276" lon="-1.28275">
        <ele>57.8165283</ele>
        <time>2011-11-20T09:39:43Z</time>
      </trkpt>
      <trkpt lat="47.27625" lon="-1.2833">
        <ele>60.7003174</ele>
        <time>2011-11-20T09:40:00Z</time>
      </trkpt>
      <trkpt lat="47.27634" lon="-1.28353">
        <ele>61.1810303</ele>
        <time>2011-11-20T09:40:07Z</time>
      </trkpt>
      <trkpt lat="47.27645" lon="-1.28352">
        <ele>61.6617432</ele>
        <time>2011-11-20T09:40:12Z</time>
      </trkpt>
      <trkpt lat="47.2769" lon="-1.283">
        <ele>60.7003174</ele>
        <time>2011-11-20T09:40:30Z</time>
      </trkpt>
      <trkpt lat="47.27692" lon="-1.28295">
        <ele>60.7003174</ele>
        <time>2011-11-20T09:40:31Z</time>
      </trkpt>
      <trkpt lat="47.27699" lon="-1.2828">
        <ele>60.2197266</ele>
        <time>2011-11-20T09:40:34Z</time>
      </trkpt>
      <trkpt lat="47.27715" lon="-1.28284">
        <ele>60.7003174</ele>
        <time>2011-11-20T09:40:39Z</time>
      </trkpt>
      <trkpt lat="47.27748" lon="-1.28338">
        <ele>62.6229248</ele>
        <time>2011-11-20T09:40:53Z</time>
      </trkpt>
      <trkpt lat="47.27787" lon="-1.2841">
        <ele>65.5070801</ele>
        <time>2011-11-20T09:41:10Z</time>
      </trkpt>
      <trkpt lat="47.27818" lon="-1.2845">
        <ele>67.4296875</ele>
        <time>2011-11-20T09:41:24Z</time>
      </trkpt>
      <trkpt lat="47.2786" lon="-1.28444">
        <ele>67.4296875</ele>
        <time>2011-11-20T09:41:36Z</time>
      </trkpt>
      <trkpt lat="47.27904" lon="-1.28399">
        <ele>65.9876709</ele>
        <time>2011-11-20T09:41:51Z</time>
      </trkpt>
      <trkpt lat="47.27895" lon="-1.28355">
        <ele>65.0263672</ele>
        <time>2011-11-20T09:42:04Z</time>
      </trkpt>
      <trkpt lat="47.27882" lon="-1.28298">
        <ele>65.0263672</ele>
        <time>2011-11-20T09:42:19Z</time>
      </trkpt>
      <trkpt lat="47.27882" lon="-1.28197">
        <ele>62.6229248</ele>
        <time>2011-11-20T09:42:38Z</time>
      </trkpt>
      <trkpt lat="47.27886" lon="-1.28153">
        <ele>60.7003174</ele>
        <time>2011-11-20T09:42:44Z</time>
      </trkpt>
      <trkpt lat="47.2789" lon="-1.28127">
        <ele>57.8165283</ele>
        <time>2011-11-20T09:42:47Z</time>
      </trkpt>
      <trkpt lat="47.27902" lon="-1.2807">
        <ele>54.4517822</ele>
        <time>2011-11-20T09:42:53Z</time>
      </trkpt>
      <trkpt lat="47.27905" lon="-1.2806">
        <ele>54.4517822</ele>
        <time>2011-11-20T09:42:54Z</time>
      </trkpt>
      <trkpt lat="47.27917" lon="-1.28017">
        <ele>53.9711914</ele>
        <time>2011-11-20T09:43:00Z</time>
      </trkpt>
      <trkpt lat="47.27923" lon="-1.27997">
        <ele>52.5291748</ele>
        <time>2011-11-20T09:43:03Z</time>
      </trkpt>
      <trkpt lat="47.2793" lon="-1.27982">
        <ele>50.6065674</ele>
        <time>2011-11-20T09:43:05Z</time>
      </trkpt>
      <trkpt lat="47.27938" lon="-1.27965">
        <ele>45.3192139</ele>
        <time>2011-11-20T09:43:07Z</time>
      </trkpt>
      <trkpt lat="47.27942" lon="-1.27956">
        <ele>45.3192139</ele>
        <time>2011-11-20T09:43:08Z</time>
      </trkpt>
      <trkpt lat="47.27951" lon="-1.2794">
        <ele>43.3966064</ele>
        <time>2011-11-20T09:43:10Z</time>
      </trkpt>
      <trkpt lat="47.27961" lon="-1.27922">
        <ele>41.9547119</ele>
        <time>2011-11-20T09:43:12Z</time>
      </trkpt>
      <trkpt lat="47.27965" lon="-1.27912">
        <ele>38.5900879</ele>
        <time>2011-11-20T09:43:13Z</time>
      </trkpt>
      <trkpt lat="47.2797" lon="-1.27902">
        <ele>35.7060547</ele>
        <time>2011-11-20T09:43:14Z</time>
      </trkpt>
      <trkpt lat="47.27974" lon="-1.27892">
        <ele>35.7060547</ele>
        <time>2011-11-20T09:43:15Z</time>
      </trkpt>
      <trkpt lat="47.27982" lon="-1.27876">
        <ele>33.7834473</ele>
        <time>2011-11-20T09:43:17Z</time>
      </trkpt>
      <trkpt lat="47.27996" lon="-1.27856">
        <ele>28.9769287</ele>
        <time>2011-11-20T09:43:20Z</time>
      </trkpt>
      <trkpt lat="47.28" lon="-1.27848">
        <ele>27.0543213</ele>
        <time>2011-11-20T09:43:21Z</time>
      </trkpt>
      <trkpt lat="47.28017" lon="-1.2783">
        <ele>25.1317139</ele>
        <time>2011-11-20T09:43:24Z</time>
      </trkpt>
      <trkpt lat="47.28022" lon="-1.27824">
        <ele>22.7282715</ele>
        <time>2011-11-20T09:43:25Z</time>
      </trkpt>
      <trkpt lat="47.28033" lon="-1.27813">
        <ele>21.7669678</ele>
        <time>2011-11-20T09:43:28Z</time>
      </trkpt>
      <trkpt lat="47.2804" lon="-1.27803">
        <ele>19.8443604</ele>
        <time>2011-11-20T09:43:31Z</time>
      </trkpt>
      <trkpt lat="47.28049" lon="-1.27791">
        <ele>16.9604492</ele>
        <time>2011-11-20T09:43:35Z</time>
      </trkpt>
      <trkpt lat="47.28052" lon="-1.27785">
        <ele>13.5958252</ele>
        <time>2011-11-20T09:43:37Z</time>
      </trkpt>
      <trkpt lat="47.28054" lon="-1.27782">
        <ele>13.5958252</ele>
        <time>2011-11-20T09:43:38Z</time>
      </trkpt>
      <trkpt lat="47.28054" lon="-1.27775">
        <ele>11.6732178</ele>
        <time>2011-11-20T09:43:40Z</time>
      </trkpt>
      <trkpt lat="47.28041" lon="-1.27765">
        <ele>10.711792</ele>
        <time>2011-11-20T09:43:44Z</time>
      </trkpt>
      <trkpt lat="47.28031" lon="-1.27766">
        <ele>11.1925049</ele>
        <time>2011-11-20T09:43:49Z</time>
      </trkpt>
      <trkpt lat="47.28027" lon="-1.27761">
        <ele>11.6732178</ele>
        <time>2011-11-20T09:43:56Z</time>
      </trkpt>
      <trkpt lat="47.28028" lon="-1.27753">
        <ele>11.1925049</ele>
        <time>2011-11-20T09:44:00Z</time>
      </trkpt>
      <trkpt lat="47.28006" lon="-1.27726">
        <ele>12.6343994</ele>
        <time>2011-11-20T09:44:10Z</time>
      </trkpt>
      <trkpt lat="47.28001" lon="-1.2772">
        <ele>13.1151123</ele>
        <time>2011-11-20T09:44:13Z</time>
      </trkpt>
      <trkpt lat="47.27993" lon="-1.27711">
        <ele>14.5570068</ele>
        <time>2011-11-20T09:44:18Z</time>
      </trkpt>
      <trkpt lat="47.27985" lon="-1.27708">
        <ele>15.9990234</ele>
        <time>2011-11-20T09:44:22Z</time>
      </trkpt>
      <trkpt lat="47.27976" lon="-1.27701">
        <ele>16.9604492</ele>
        <time>2011-11-20T09:44:29Z</time>
      </trkpt>
      <trkpt lat="47.27972" lon="-1.27696">
        <ele>17.9217529</ele>
        <time>2011-11-20T09:44:37Z</time>
      </trkpt>
      <trkpt lat="47.27964" lon="-1.2769">
        <ele>16.9604492</ele>
        <time>2011-11-20T09:44:41Z</time>
      </trkpt>
      <trkpt lat="47.27948" lon="-1.27663">
        <ele>19.3637695</ele>
        <time>2011-11-20T09:44:53Z</time>
      </trkpt>
      <trkpt lat="47.27948" lon="-1.27649">
        <ele>20.3249512</ele>
        <time>2011-11-20T09:45:03Z</time>
      </trkpt>
      <trkpt lat="47.27948" lon="-1.27637">
        <ele>21.286377</ele>
        <time>2011-11-20T09:45:07Z</time>
      </trkpt>
      <trkpt lat="47.27949" lon="-1.27632">
        <ele>22.7282715</ele>
        <time>2011-11-20T09:45:10Z</time>
      </trkpt>
      <trkpt lat="47.27954" lon="-1.27607">
        <ele>25.1317139</ele>
        <time>2011-11-20T09:45:19Z</time>
      </trkpt>
      <trkpt lat="47.27955" lon="-1.27605">
        <ele>25.1317139</ele>
        <time>2011-11-20T09:45:20Z</time>
      </trkpt>
      <trkpt lat="47.27961" lon="-1.27595">
        <ele>27.5349121</ele>
        <time>2011-11-20T09:45:32Z</time>
      </trkpt>
      <trkpt lat="47.27965" lon="-1.2758">
        <ele>28.9769287</ele>
        <time>2011-11-20T09:45:48Z</time>
      </trkpt>
      <trkpt lat="47.2797" lon="-1.27571">
        <ele>30.4188232</ele>
        <time>2011-11-20T09:45:59Z</time>
      </trkpt>
      <trkpt lat="47.27972" lon="-1.27569">
        <ele>29.9381104</ele>
        <time>2011-11-20T09:46:02Z</time>
      </trkpt>
      <trkpt lat="47.27986" lon="-1.27552">
        <ele>31.8607178</ele>
        <time>2011-11-20T09:46:13Z</time>
      </trkpt>
      <trkpt lat="47.28003" lon="-1.27528">
        <ele>35.7060547</ele>
        <time>2011-11-20T09:46:24Z</time>
      </trkpt>
      <trkpt lat="47.28005" lon="-1.27526">
        <ele>36.6674805</ele>
        <time>2011-11-20T09:46:26Z</time>
      </trkpt>
      <trkpt lat="47.28009" lon="-1.27522">
        <ele>36.1867676</ele>
        <time>2011-11-20T09:46:29Z</time>
      </trkpt>
      <trkpt lat="47.28021" lon="-1.27502">
        <ele>37.6286621</ele>
        <time>2011-11-20T09:46:42Z</time>
      </trkpt>
      <trkpt lat="47.28028" lon="-1.27492">
        <ele>39.0706787</ele>
        <time>2011-11-20T09:46:54Z</time>
      </trkpt>
      <trkpt lat="47.2803" lon="-1.27491">
        <ele>40.0321045</ele>
        <time>2011-11-20T09:46:56Z</time>
      </trkpt>
      <trkpt lat="47.28037" lon="-1.27483">
        <ele>40.5128174</ele>
        <time>2011-11-20T09:47:03Z</time>
      </trkpt>
      <trkpt lat="47.28045" lon="-1.27475">
        <ele>41.473999</ele>
        <time>2011-11-20T09:47:18Z</time>
      </trkpt>
      <trkpt lat="47.28062" lon="-1.2745">
        <ele>41.9547119</ele>
        <time>2011-11-20T09:47:30Z</time>
      </trkpt>
      <trkpt lat="47.28082" lon="-1.27425">
        <ele>43.8773193</ele>
        <time>2011-11-20T09:47:42Z</time>
      </trkpt>
      <trkpt lat="47.28107" lon="-1.27407">
        <ele>45.7999268</ele>
        <time>2011-11-20T09:47:55Z</time>
      </trkpt>
      <trkpt lat="47.28123" lon="-1.27397">
        <ele>47.2418213</ele>
        <time>2011-11-20T09:48:03Z</time>
      </trkpt>
      <trkpt lat="47.28137" lon="-1.27387">
        <ele>49.1645508</ele>
        <time>2011-11-20T09:48:11Z</time>
      </trkpt>
      <trkpt lat="47.2816" lon="-1.2738">
        <ele>51.0871582</ele>
        <time>2011-11-20T09:48:23Z</time>
      </trkpt>
      <trkpt lat="47.28162" lon="-1.2738">
        <ele>51.0871582</ele>
        <time>2011-11-20T09:48:24Z</time>
      </trkpt>
      <trkpt lat="47.28189" lon="-1.27362">
        <ele>52.048584</ele>
        <time>2011-11-20T09:48:38Z</time>
      </trkpt>
      <trkpt lat="47.28206" lon="-1.27325">
        <ele>53.4904785</ele>
        <time>2011-11-20T09:48:51Z</time>
      </trkpt>
      <trkpt lat="47.28211" lon="-1.27315">
        <ele>53.9711914</ele>
        <time>2011-11-20T09:49:04Z</time>
      </trkpt>
      <trkpt lat="47.28211" lon="-1.27311">
        <ele>53.9711914</ele>
        <time>2011-11-20T09:49:23Z</time>
      </trkpt>
      <trkpt lat="47.28212" lon="-1.27311">
        <ele>53.9711914</ele>
        <time>2011-11-20T10:09:02Z</time>
      </trkpt>
      <trkpt lat="47.28213" lon="-1.2731">
        <ele>53.9711914</ele>
        <time>2011-11-20T10:09:05Z</time>
      </trkpt>
      <trkpt lat="47.28233" lon="-1.27282">
        <ele>53.4904785</ele>
        <time>2011-11-20T10:09:15Z</time>
      </trkpt>
      <trkpt lat="47.28243" lon="-1.27264">
        <ele>53.0097656</ele>
        <time>2011-11-20T10:09:18Z</time>
      </trkpt>
      <trkpt lat="47.28252" lon="-1.27247">
        <ele>53.9711914</ele>
        <time>2011-11-20T10:09:21Z</time>
      </trkpt>
      <trkpt lat="47.28269" lon="-1.27208">
        <ele>54.932373</ele>
        <time>2011-11-20T10:09:28Z</time>
      </trkpt>
      <trkpt lat="47.28274" lon="-1.27189">
        <ele>54.932373</ele>
        <time>2011-11-20T10:09:31Z</time>
      </trkpt>
      <trkpt lat="47.28272" lon="-1.27172">
        <ele>56.8551025</ele>
        <time>2011-11-20T10:09:39Z</time>
      </trkpt>
      <trkpt lat="47.2827" lon="-1.27164">
        <ele>57.3358154</ele>
        <time>2011-11-20T10:09:52Z</time>
      </trkpt>
      <trkpt lat="47.2827" lon="-1.27163">
        <ele>56.8551025</ele>
        <time>2011-11-20T10:09:53Z</time>
      </trkpt>
      <trkpt lat="47.28252" lon="-1.27133">
        <ele>57.3358154</ele>
        <time>2011-11-20T10:10:03Z</time>
      </trkpt>
      <trkpt lat="47.28245" lon="-1.27109">
        <ele>58.2971191</ele>
        <time>2011-11-20T10:10:07Z</time>
      </trkpt>
      <trkpt lat="47.28241" lon="-1.27085">
        <ele>58.2971191</ele>
        <time>2011-11-20T10:10:11Z</time>
      </trkpt>
      <trkpt lat="47.28226" lon="-1.2701">
        <ele>61.1810303</ele>
        <time>2011-11-20T10:10:24Z</time>
      </trkpt>
      <trkpt lat="47.28202" lon="-1.26907">
        <ele>63.5843506</ele>
        <time>2011-11-20T10:10:42Z</time>
      </trkpt>
      <trkpt lat="47.28188" lon="-1.26836">
        <ele>65.0263672</ele>
        <time>2011-11-20T10:10:54Z</time>
      </trkpt>
      <trkpt lat="47.28171" lon="-1.26721">
        <ele>66.9489746</ele>
        <time>2011-11-20T10:11:13Z</time>
      </trkpt>
      <trkpt lat="47.2817" lon="-1.26708">
        <ele>66.9489746</ele>
        <time>2011-11-20T10:11:15Z</time>
      </trkpt>
      <trkpt lat="47.28183" lon="-1.26628">
        <ele>66.9489746</ele>
        <time>2011-11-20T10:11:27Z</time>
      </trkpt>
      <trkpt lat="47.28181" lon="-1.26588">
        <ele>66.9489746</ele>
        <time>2011-11-20T10:11:33Z</time>
      </trkpt>
      <trkpt lat="47.28148" lon="-1.26514">
        <ele>65.9876709</ele>
        <time>2011-11-20T10:11:46Z</time>
      </trkpt>
      <trkpt lat="47.28075" lon="-1.26454">
        <ele>65.5070801</ele>
        <time>2011-11-20T10:12:02Z</time>
      </trkpt>
      <trkpt lat="47.28024" lon="-1.26417">
        <ele>65.0263672</ele>
        <time>2011-11-20T10:12:13Z</time>
      </trkpt>
      <trkpt lat="47.27956" lon="-1.26323">
        <ele>63.5843506</ele>
        <time>2011-11-20T10:12:30Z</time>
      </trkpt>
      <trkpt lat="47.27895" lon="-1.26239">
        <ele>64.5456543</ele>
        <time>2011-11-20T10:12:46Z</time>
      </trkpt>
      <trkpt lat="47.27865" lon="-1.26234">
        <ele>65.0263672</ele>
        <time>2011-11-20T10:12:52Z</time>
      </trkpt>
      <trkpt lat="47.27844" lon="-1.26239">
        <ele>65.9876709</ele>
        <time>2011-11-20T10:12:56Z</time>
      </trkpt>
      <trkpt lat="47.27817" lon="-1.26225">
        <ele>66.9489746</ele>
        <time>2011-11-20T10:13:02Z</time>
      </trkpt>
      <trkpt lat="47.27791" lon="-1.26182">
        <ele>67.4296875</ele>
        <time>2011-11-20T10:13:10Z</time>
      </trkpt>
      <trkpt lat="47.27789" lon="-1.26157">
        <ele>66.9489746</ele>
        <time>2011-11-20T10:13:14Z</time>
      </trkpt>
      <trkpt lat="47.27798" lon="-1.26134">
        <ele>65.0263672</ele>
        <time>2011-11-20T10:13:17Z</time>
      </trkpt>
      <trkpt lat="47.27823" lon="-1.26008">
        <ele>61.6617432</ele>
        <time>2011-11-20T10:13:30Z</time>
      </trkpt>
      <trkpt lat="47.27825" lon="-1.25988">
        <ele>60.2197266</ele>
        <time>2011-11-20T10:13:32Z</time>
      </trkpt>
      <trkpt lat="47.27828" lon="-1.25972">
        <ele>59.7391357</ele>
        <time>2011-11-20T10:13:34Z</time>
      </trkpt>
      <trkpt lat="47.27848" lon="-1.25942">
        <ele>57.3358154</ele>
        <time>2011-11-20T10:13:39Z</time>
      </trkpt>
      <trkpt lat="47.27861" lon="-1.25922">
        <ele>55.8937988</ele>
        <time>2011-11-20T10:13:42Z</time>
      </trkpt>
      <trkpt lat="47.27872" lon="-1.25909">
        <ele>54.4517822</ele>
        <time>2011-11-20T10:13:44Z</time>
      </trkpt>
      <trkpt lat="47.27884" lon="-1.25898">
        <ele>53.4904785</ele>
        <time>2011-11-20T10:13:46Z</time>
      </trkpt>
      <trkpt lat="47.27895" lon="-1.25885">
        <ele>52.5291748</ele>
        <time>2011-11-20T10:13:48Z</time>
      </trkpt>
      <trkpt lat="47.27912" lon="-1.2587">
        <ele>51.0871582</ele>
        <time>2011-11-20T10:13:51Z</time>
      </trkpt>
      <trkpt lat="47.27925" lon="-1.2586">
        <ele>49.6452637</ele>
        <time>2011-11-20T10:13:53Z</time>
      </trkpt>
      <trkpt lat="47.27938" lon="-1.25851">
        <ele>48.2033691</ele>
        <time>2011-11-20T10:13:55Z</time>
      </trkpt>
      <trkpt lat="47.27944" lon="-1.25847">
        <ele>46.7612305</ele>
        <time>2011-11-20T10:13:56Z</time>
      </trkpt>
      <trkpt lat="47.27968" lon="-1.25825">
        <ele>43.8773193</ele>
        <time>2011-11-20T10:14:01Z</time>
      </trkpt>
      <trkpt lat="47.27974" lon="-1.25819">
        <ele>43.8773193</ele>
        <time>2011-11-20T10:14:02Z</time>
      </trkpt>
      <trkpt lat="47.27986" lon="-1.25806">
        <ele>41.9547119</ele>
        <time>2011-11-20T10:14:04Z</time>
      </trkpt>
      <trkpt lat="47.27996" lon="-1.25793">
        <ele>40.5128174</ele>
        <time>2011-11-20T10:14:06Z</time>
      </trkpt>
      <trkpt lat="47.28002" lon="-1.25787">
        <ele>39.5512695</ele>
        <time>2011-11-20T10:14:07Z</time>
      </trkpt>
      <trkpt lat="47.28011" lon="-1.25775">
        <ele>38.5900879</ele>
        <time>2011-11-20T10:14:09Z</time>
      </trkpt>
      <trkpt lat="47.28028" lon="-1.25763">
        <ele>37.6286621</ele>
        <time>2011-11-20T10:14:12Z</time>
      </trkpt>
      <trkpt lat="47.28032" lon="-1.25747">
        <ele>38.109375</ele>
        <time>2011-11-20T10:14:18Z</time>
      </trkpt>
      <trkpt lat="47.28026" lon="-1.25742">
        <ele>37.6286621</ele>
        <time>2011-11-20T10:14:20Z</time>
      </trkpt>
      <trkpt lat="47.2802" lon="-1.25734">
        <ele>37.6286621</ele>
        <time>2011-11-20T10:14:24Z</time>
      </trkpt>
      <trkpt lat="47.28019" lon="-1.25726">
        <ele>38.5900879</ele>
        <time>2011-11-20T10:14:27Z</time>
      </trkpt>
      <trkpt lat="47.28024" lon="-1.2572">
        <ele>39.5512695</ele>
        <time>2011-11-20T10:14:30Z</time>
      </trkpt>
      <trkpt lat="47.28045" lon="-1.2571">
        <ele>42.9160156</ele>
        <time>2011-11-20T10:14:42Z</time>
      </trkpt>
      <trkpt lat="47.28054" lon="-1.25707">
        <ele>43.8773193</ele>
        <time>2011-11-20T10:14:46Z</time>
      </trkpt>
      <trkpt lat="47.28066" lon="-1.25708">
        <ele>46.7612305</ele>
        <time>2011-11-20T10:14:53Z</time>
      </trkpt>
      <trkpt lat="47.28098" lon="-1.25692">
        <ele>50.6065674</ele>
        <time>2011-11-20T10:15:09Z</time>
      </trkpt>
      <trkpt lat="47.28126" lon="-1.25646">
        <ele>50.6065674</ele>
        <time>2011-11-20T10:15:23Z</time>
      </trkpt>
      <trkpt lat="47.28138" lon="-1.25597">
        <ele>52.048584</ele>
        <time>2011-11-20T10:15:35Z</time>
      </trkpt>
      <trkpt lat="47.28158" lon="-1.25517">
        <ele>53.4904785</ele>
        <time>2011-11-20T10:15:54Z</time>
      </trkpt>
      <trkpt lat="47.28188" lon="-1.25467">
        <ele>55.4130859</ele>
        <time>2011-11-20T10:16:08Z</time>
      </trkpt>
      <trkpt lat="47.28205" lon="-1.2544">
        <ele>56.8551025</ele>
        <time>2011-11-20T10:16:18Z</time>
      </trkpt>
      <trkpt lat="47.28226" lon="-1.25404">
        <ele>57.8165283</ele>
        <time>2011-11-20T10:16:29Z</time>
      </trkpt>
      <trkpt lat="47.28268" lon="-1.25323">
        <ele>58.2971191</ele>
        <time>2011-11-20T10:16:47Z</time>
      </trkpt>
      <trkpt lat="47.28279" lon="-1.25322">
        <ele>57.3358154</ele>
        <time>2011-11-20T10:16:51Z</time>
      </trkpt>
      <trkpt lat="47.28293" lon="-1.25349">
        <ele>55.4130859</ele>
        <time>2011-11-20T10:16:58Z</time>
      </trkpt>
      <trkpt lat="47.28299" lon="-1.25361">
        <ele>53.4904785</ele>
        <time>2011-11-20T10:17:00Z</time>
      </trkpt>
      <trkpt lat="47.28302" lon="-1.25367">
        <ele>52.5291748</ele>
        <time>2011-11-20T10:17:01Z</time>
      </trkpt>
      <trkpt lat="47.28317" lon="-1.2538">
        <ele>49.1645508</ele>
        <time>2011-11-20T10:17:04Z</time>
      </trkpt>
      <trkpt lat="47.28321" lon="-1.25382">
        <ele>49.1645508</ele>
        <time>2011-11-20T10:17:05Z</time>
      </trkpt>
      <trkpt lat="47.28324" lon="-1.25383">
        <ele>48.2033691</ele>
        <time>2011-11-20T10:17:06Z</time>
      </trkpt>
      <trkpt lat="47.2833" lon="-1.25399">
        <ele>46.7612305</ele>
        <time>2011-11-20T10:17:10Z</time>
      </trkpt>
      <trkpt lat="47.28328" lon="-1.25419">
        <ele>48.2033691</ele>
        <time>2011-11-20T10:17:14Z</time>
      </trkpt>
      <trkpt lat="47.28321" lon="-1.2544">
        <ele>48.2033691</ele>
        <time>2011-11-20T10:17:18Z</time>
      </trkpt>
      <trkpt lat="47.28322" lon="-1.25448">
        <ele>48.2033691</ele>
        <time>2011-11-20T10:17:23Z</time>
      </trkpt>
      <trkpt lat="47.28331" lon="-1.25442">
        <ele>47.2418213</ele>
        <time>2011-11-20T10:17:26Z</time>
      </trkpt>
      <trkpt lat="47.28329" lon="-1.25453">
        <ele>46.7612305</ele>
        <time>2011-11-20T10:17:31Z</time>
      </trkpt>
      <trkpt lat="47.28314" lon="-1.25471">
        <ele>45.7999268</ele>
        <time>2011-11-20T10:17:40Z</time>
      </trkpt>
      <trkpt lat="47.28309" lon="-1.25475">
        <ele>44.838623</ele>
        <time>2011-11-20T10:17:42Z</time>
      </trkpt>
      <trkpt lat="47.28307" lon="-1.25479">
        <ele>44.3580322</ele>
        <time>2011-11-20T10:17:44Z</time>
      </trkpt>
      <trkpt lat="47.28304" lon="-1.25486">
        <ele>42.9160156</ele>
        <time>2011-11-20T10:17:46Z</time>
      </trkpt>
      <trkpt lat="47.28302" lon="-1.2549">
        <ele>40.9934082</ele>
        <time>2011-11-20T10:17:47Z</time>
      </trkpt>
      <trkpt lat="47.28297" lon="-1.25494">
        <ele>39.0706787</ele>
        <time>2011-11-20T10:17:49Z</time>
      </trkpt>
      <trkpt lat="47.2829" lon="-1.25493">
        <ele>39.0706787</ele>
        <time>2011-11-20T10:17:51Z</time>
      </trkpt>
      <trkpt lat="47.28284" lon="-1.25502">
        <ele>39.0706787</ele>
        <time>2011-11-20T10:17:55Z</time>
      </trkpt>
      <trkpt lat="47.28274" lon="-1.2551">
        <ele>39.5512695</ele>
        <time>2011-11-20T10:18:00Z</time>
      </trkpt>
      <trkpt lat="47.28266" lon="-1.25506">
        <ele>39.0706787</ele>
        <time>2011-11-20T10:18:02Z</time>
      </trkpt>
      <trkpt lat="47.28248" lon="-1.25506">
        <ele>38.5900879</ele>
        <time>2011-11-20T10:18:06Z</time>
      </trkpt>
      <trkpt lat="47.28219" lon="-1.25526">
        <ele>38.109375</ele>
        <time>2011-11-20T10:18:14Z</time>
      </trkpt>
      <trkpt lat="47.28209" lon="-1.25542">
        <ele>37.6286621</ele>
        <time>2011-11-20T10:18:17Z</time>
      </trkpt>
      <trkpt lat="47.28185" lon="-1.25598">
        <ele>38.109375</ele>
        <time>2011-11-20T10:18:27Z</time>
      </trkpt>
      <trkpt lat="47.28172" lon="-1.25614">
        <ele>37.1480713</ele>
        <time>2011-11-20T10:18:31Z</time>
      </trkpt>
      <trkpt lat="47.28161" lon="-1.25655">
        <ele>37.6286621</ele>
        <time>2011-11-20T10:18:38Z</time>
      </trkpt>
      <trkpt lat="47.28156" lon="-1.25762">
        <ele>37.1480713</ele>
        <time>2011-11-20T10:18:55Z</time>
      </trkpt>
      <trkpt lat="47.2815" lon="-1.25769">
        <ele>37.6286621</ele>
        <time>2011-11-20T10:18:57Z</time>
      </trkpt>
      <trkpt lat="47.28145" lon="-1.25785">
        <ele>37.6286621</ele>
        <time>2011-11-20T10:19:01Z</time>
      </trkpt>
      <trkpt lat="47.28148" lon="-1.25811">
        <ele>36.6674805</ele>
        <time>2011-11-20T10:19:06Z</time>
      </trkpt>
      <trkpt lat="47.28152" lon="-1.25834">
        <ele>33.3028564</ele>
        <time>2011-11-20T10:19:09Z</time>
      </trkpt>
      <trkpt lat="47.28154" lon="-1.25843">
        <ele>33.7834473</ele>
        <time>2011-11-20T10:19:10Z</time>
      </trkpt>
      <trkpt lat="47.28164" lon="-1.25913">
        <ele>33.7834473</ele>
        <time>2011-11-20T10:19:18Z</time>
      </trkpt>
      <trkpt lat="47.28172" lon="-1.25937">
        <ele>33.7834473</ele>
        <time>2011-11-20T10:19:22Z</time>
      </trkpt>
      <trkpt lat="47.2819" lon="-1.25978">
        <ele>32.3415527</ele>
        <time>2011-11-20T10:19:28Z</time>
      </trkpt>
      <trkpt lat="47.28198" lon="-1.25998">
        <ele>31.8607178</ele>
        <time>2011-11-20T10:19:31Z</time>
      </trkpt>
      <trkpt lat="47.28211" lon="-1.26009">
        <ele>31.380127</ele>
        <time>2011-11-20T10:19:34Z</time>
      </trkpt>
      <trkpt lat="47.28232" lon="-1.26039">
        <ele>30.8995361</ele>
        <time>2011-11-20T10:19:40Z</time>
      </trkpt>
      <trkpt lat="47.28244" lon="-1.26059">
        <ele>30.8995361</ele>
        <time>2011-11-20T10:19:44Z</time>
      </trkpt>
      <trkpt lat="47.28252" lon="-1.26098">
        <ele>30.8995361</ele>
        <time>2011-11-20T10:19:50Z</time>
      </trkpt>
      <trkpt lat="47.28254" lon="-1.26111">
        <ele>30.4188232</ele>
        <time>2011-11-20T10:19:52Z</time>
      </trkpt>
      <trkpt lat="47.28261" lon="-1.26137">
        <ele>30.4188232</ele>
        <time>2011-11-20T10:19:57Z</time>
      </trkpt>
      <trkpt lat="47.28278" lon="-1.26143">
        <ele>29.9381104</ele>
        <time>2011-11-20T10:20:01Z</time>
      </trkpt>
      <trkpt lat="47.2831" lon="-1.26134">
        <ele>29.9381104</ele>
        <time>2011-11-20T10:20:08Z</time>
      </trkpt>
      <trkpt lat="47.2833" lon="-1.2612">
        <ele>29.4575195</ele>
        <time>2011-11-20T10:20:13Z</time>
      </trkpt>
      <trkpt lat="47.28361" lon="-1.26121">
        <ele>28.9769287</ele>
        <time>2011-11-20T10:20:21Z</time>
      </trkpt>
      <trkpt lat="47.28373" lon="-1.26119">
        <ele>29.9381104</ele>
        <time>2011-11-20T10:20:25Z</time>
      </trkpt>
      <trkpt lat="47.28385" lon="-1.26102">
        <ele>31.8607178</ele>
        <time>2011-11-20T10:20:31Z</time>
      </trkpt>
      <trkpt lat="47.28389" lon="-1.26083">
        <ele>35.2254639</ele>
        <time>2011-11-20T10:20:40Z</time>
      </trkpt>
      <trkpt lat="47.28394" lon="-1.26056">
        <ele>38.109375</ele>
        <time>2011-11-20T10:20:52Z</time>
      </trkpt>
      <trkpt lat="47.28402" lon="-1.26031">
        <ele>41.9547119</ele>
        <time>2011-11-20T10:21:02Z</time>
      </trkpt>
      <trkpt lat="47.28415" lon="-1.25998">
        <ele>45.7999268</ele>
        <time>2011-11-20T10:21:16Z</time>
      </trkpt>
      <trkpt lat="47.28423" lon="-1.25984">
        <ele>47.2418213</ele>
        <time>2011-11-20T10:21:22Z</time>
      </trkpt>
      <trkpt lat="47.2844" lon="-1.2596">
        <ele>51.5678711</ele>
        <time>2011-11-20T10:21:35Z</time>
      </trkpt>
      <trkpt lat="47.28445" lon="-1.25952">
        <ele>52.048584</ele>
        <time>2011-11-20T10:21:39Z</time>
      </trkpt>
      <trkpt lat="47.28451" lon="-1.2595">
        <ele>52.5291748</ele>
        <time>2011-11-20T10:21:43Z</time>
      </trkpt>
      <trkpt lat="47.28489" lon="-1.2594">
        <ele>55.8937988</ele>
        <time>2011-11-20T10:22:05Z</time>
      </trkpt>
      <trkpt lat="47.28525" lon="-1.259">
        <ele>57.8165283</ele>
        <time>2011-11-20T10:22:26Z</time>
      </trkpt>
      <trkpt lat="47.28558" lon="-1.25826">
        <ele>60.7003174</ele>
        <time>2011-11-20T10:22:49Z</time>
      </trkpt>
      <trkpt lat="47.28585" lon="-1.25752">
        <ele>63.5843506</ele>
        <time>2011-11-20T10:23:12Z</time>
      </trkpt>
      <trkpt lat="47.28589" lon="-1.25745">
        <ele>64.0650635</ele>
        <time>2011-11-20T10:23:15Z</time>
      </trkpt>
      <trkpt lat="47.28598" lon="-1.25738">
        <ele>65.0263672</ele>
        <time>2011-11-20T10:23:20Z</time>
      </trkpt>
      <trkpt lat="47.28618" lon="-1.25778">
        <ele>63.5843506</ele>
        <time>2011-11-20T10:23:32Z</time>
      </trkpt>
      <trkpt lat="47.28632" lon="-1.25814">
        <ele>62.6229248</ele>
        <time>2011-11-20T10:23:38Z</time>
      </trkpt>
      <trkpt lat="47.2869" lon="-1.25967">
        <ele>61.1810303</ele>
        <time>2011-11-20T10:24:00Z</time>
      </trkpt>
      <trkpt lat="47.28763" lon="-1.2609">
        <ele>62.6229248</ele>
        <time>2011-11-20T10:24:21Z</time>
      </trkpt>
      <trkpt lat="47.28844" lon="-1.26145">
        <ele>62.6229248</ele>
        <time>2011-11-20T10:24:38Z</time>
      </trkpt>
      <trkpt lat="47.28933" lon="-1.26166">
        <ele>62.142334</ele>
        <time>2011-11-20T10:24:56Z</time>
      </trkpt>
      <trkpt lat="47.28952" lon="-1.26185">
        <ele>61.6617432</ele>
        <time>2011-11-20T10:25:00Z</time>
      </trkpt>
      <trkpt lat="47.28992" lon="-1.26261">
        <ele>57.8165283</ele>
        <time>2011-11-20T10:25:10Z</time>
      </trkpt>
      <trkpt lat="47.29" lon="-1.26279">
        <ele>56.8551025</ele>
        <time>2011-11-20T10:25:12Z</time>
      </trkpt>
      <trkpt lat="47.29029" lon="-1.26338">
        <ele>57.3358154</ele>
        <time>2011-11-20T10:25:19Z</time>
      </trkpt>
      <trkpt lat="47.29083" lon="-1.26414">
        <ele>58.2971191</ele>
        <time>2011-11-20T10:25:33Z</time>
      </trkpt>
      <trkpt lat="47.29158" lon="-1.26438">
        <ele>58.2971191</ele>
        <time>2011-11-20T10:25:47Z</time>
      </trkpt>
      <trkpt lat="47.29211" lon="-1.26439">
        <ele>58.77771</ele>
        <time>2011-11-20T10:25:57Z</time>
      </trkpt>
      <trkpt lat="47.29301" lon="-1.26392">
        <ele>60.7003174</ele>
        <time>2011-11-20T10:26:16Z</time>
      </trkpt>
      <trkpt lat="47.29323" lon="-1.2638">
        <ele>60.7003174</ele>
        <time>2011-11-20T10:26:21Z</time>
      </trkpt>
      <trkpt lat="47.29348" lon="-1.26373">
        <ele>59.7391357</ele>
        <time>2011-11-20T10:26:26Z</time>
      </trkpt>
      <trkpt lat="47.29386" lon="-1.26402">
        <ele>56.8551025</ele>
        <time>2011-11-20T10:26:33Z</time>
      </trkpt>
      <trkpt lat="47.29423" lon="-1.26461">
        <ele>53.4904785</ele>
        <time>2011-11-20T10:26:40Z</time>
      </trkpt>
      <trkpt lat="47.29453" lon="-1.26488">
        <ele>50.6065674</ele>
        <time>2011-11-20T10:26:44Z</time>
      </trkpt>
      <trkpt lat="47.29477" lon="-1.26505">
        <ele>49.1645508</ele>
        <time>2011-11-20T10:26:47Z</time>
      </trkpt>
      <trkpt lat="47.29546" lon="-1.2655">
        <ele>48.68396</ele>
        <time>2011-11-20T10:26:56Z</time>
      </trkpt>
      <trkpt lat="47.29559" lon="-1.26557">
        <ele>50.1259766</ele>
        <time>2011-11-20T10:26:58Z</time>
      </trkpt>
      <trkpt lat="47.29576" lon="-1.26569">
        <ele>52.048584</ele>
        <time>2011-11-20T10:27:01Z</time>
      </trkpt>
      <trkpt lat="47.29606" lon="-1.26606">
        <ele>54.932373</ele>
        <time>2011-11-20T10:27:08Z</time>
      </trkpt>
      <trkpt lat="47.29618" lon="-1.26601">
        <ele>56.3745117</ele>
        <time>2011-11-20T10:27:12Z</time>
      </trkpt>
      <trkpt lat="47.29619" lon="-1.26588">
        <ele>56.3745117</ele>
        <time>2011-11-20T10:27:14Z</time>
      </trkpt>
      <trkpt lat="47.29632" lon="-1.26555">
        <ele>57.3358154</ele>
        <time>2011-11-20T10:27:20Z</time>
      </trkpt>
      <trkpt lat="47.29638" lon="-1.26546">
        <ele>57.3358154</ele>
        <time>2011-11-20T10:27:22Z</time>
      </trkpt>
      <trkpt lat="47.2966" lon="-1.26528">
        <ele>57.8165283</ele>
        <time>2011-11-20T10:27:28Z</time>
      </trkpt>
      <trkpt lat="47.29686" lon="-1.26513">
        <ele>59.2584229</ele>
        <time>2011-11-20T10:27:35Z</time>
      </trkpt>
      <trkpt lat="47.29723" lon="-1.26469">
        <ele>60.7003174</ele>
        <time>2011-11-20T10:27:48Z</time>
      </trkpt>
      <trkpt lat="47.29792" lon="-1.26446">
        <ele>63.5843506</ele>
        <time>2011-11-20T10:28:08Z</time>
      </trkpt>
      <trkpt lat="47.29813" lon="-1.26437">
        <ele>65.0263672</ele>
        <time>2011-11-20T10:28:15Z</time>
      </trkpt>
      <trkpt lat="47.29863" lon="-1.26399">
        <ele>65.9876709</ele>
        <time>2011-11-20T10:28:34Z</time>
      </trkpt>
      <trkpt lat="47.29921" lon="-1.26346">
        <ele>66.9489746</ele>
        <time>2011-11-20T10:28:55Z</time>
      </trkpt>
      <trkpt lat="47.29996" lon="-1.26292">
        <ele>67.9102783</ele>
        <time>2011-11-20T10:29:19Z</time>
      </trkpt>
      <trkpt lat="47.3003" lon="-1.263">
        <ele>69.3522949</ele>
        <time>2011-11-20T10:29:30Z</time>
      </trkpt>
      <trkpt lat="47.3008" lon="-1.26378">
        <ele>71.2749023</ele>
        <time>2011-11-20T10:29:51Z</time>
      </trkpt>
      <trkpt lat="47.30141" lon="-1.2647">
        <ele>72.7169189</ele>
        <time>2011-11-20T10:30:15Z</time>
      </trkpt>
      <trkpt lat="47.30151" lon="-1.26495">
        <ele>72.7169189</ele>
        <time>2011-11-20T10:30:21Z</time>
      </trkpt>
      <trkpt lat="47.3011" lon="-1.26551">
        <ele>72.2362061</ele>
        <time>2011-11-20T10:30:34Z</time>
      </trkpt>
      <trkpt lat="47.30036" lon="-1.26636">
        <ele>70.7941895</ele>
        <time>2011-11-20T10:30:52Z</time>
      </trkpt>
      <trkpt lat="47.3" lon="-1.26676">
        <ele>70.7941895</ele>
        <time>2011-11-20T10:31:01Z</time>
      </trkpt>
      <trkpt lat="47.29986" lon="-1.26668">
        <ele>69.8328857</ele>
        <time>2011-11-20T10:31:05Z</time>
      </trkpt>
      <trkpt lat="47.29981" lon="-1.26658">
        <ele>70.3134766</ele>
        <time>2011-11-20T10:31:07Z</time>
      </trkpt>
      <trkpt lat="47.29932" lon="-1.2658">
        <ele>69.3522949</ele>
        <time>2011-11-20T10:31:23Z</time>
      </trkpt>
      <trkpt lat="47.29916" lon="-1.26588">
        <ele>69.8328857</ele>
        <time>2011-11-20T10:31:28Z</time>
      </trkpt>
      <trkpt lat="47.2991" lon="-1.26597">
        <ele>69.3522949</ele>
        <time>2011-11-20T10:31:30Z</time>
      </trkpt>
      <trkpt lat="47.29841" lon="-1.2669">
        <ele>66.9489746</ele>
        <time>2011-11-20T10:31:50Z</time>
      </trkpt>
      <trkpt lat="47.29788" lon="-1.2675">
        <ele>65.5070801</ele>
        <time>2011-11-20T10:32:02Z</time>
      </trkpt>
      <trkpt lat="47.29721" lon="-1.26803">
        <ele>64.0650635</ele>
        <time>2011-11-20T10:32:16Z</time>
      </trkpt>
      <trkpt lat="47.29716" lon="-1.2681">
        <ele>64.5456543</ele>
        <time>2011-11-20T10:32:18Z</time>
      </trkpt>
      <trkpt lat="47.29718" lon="-1.26834">
        <ele>63.5843506</ele>
        <time>2011-11-20T10:32:22Z</time>
      </trkpt>
      <trkpt lat="47.29725" lon="-1.26855">
        <ele>63.5843506</ele>
        <time>2011-11-20T10:32:25Z</time>
      </trkpt>
      <trkpt lat="47.29746" lon="-1.26978">
        <ele>62.142334</ele>
        <time>2011-11-20T10:32:41Z</time>
      </trkpt>
      <trkpt lat="47.29747" lon="-1.27009">
        <ele>62.142334</ele>
        <time>2011-11-20T10:32:45Z</time>
      </trkpt>
      <trkpt lat="47.29748" lon="-1.27035">
        <ele>61.6617432</ele>
        <time>2011-11-20T10:32:49Z</time>
      </trkpt>
      <trkpt lat="47.29737" lon="-1.27049">
        <ele>61.1810303</ele>
        <time>2011-11-20T10:32:53Z</time>
      </trkpt>
      <trkpt lat="47.29597" lon="-1.27078">
        <ele>59.7391357</ele>
        <time>2011-11-20T10:33:19Z</time>
      </trkpt>
      <trkpt lat="47.29587" lon="-1.27077">
        <ele>60.2197266</ele>
        <time>2011-11-20T10:33:21Z</time>
      </trkpt>
      <trkpt lat="47.2958" lon="-1.27098">
        <ele>59.2584229</ele>
        <time>2011-11-20T10:33:25Z</time>
      </trkpt>
      <trkpt lat="47.29595" lon="-1.27228">
        <ele>55.8937988</ele>
        <time>2011-11-20T10:33:41Z</time>
      </trkpt>
      <trkpt lat="47.29598" lon="-1.27263">
        <ele>54.932373</ele>
        <time>2011-11-20T10:33:45Z</time>
      </trkpt>
      <trkpt lat="47.29638" lon="-1.27364">
        <ele>53.0097656</ele>
        <time>2011-11-20T10:34:00Z</time>
      </trkpt>
      <trkpt lat="47.29648" lon="-1.27383">
        <ele>52.5291748</ele>
        <time>2011-11-20T10:34:03Z</time>
      </trkpt>
      <trkpt lat="47.29662" lon="-1.27421">
        <ele>51.0871582</ele>
        <time>2011-11-20T10:34:08Z</time>
      </trkpt>
      <trkpt lat="47.29676" lon="-1.2745">
        <ele>50.6065674</ele>
        <time>2011-11-20T10:34:13Z</time>
      </trkpt>
      <trkpt lat="47.29681" lon="-1.27473">
        <ele>50.6065674</ele>
        <time>2011-11-20T10:34:17Z</time>
      </trkpt>
      <trkpt lat="47.29681" lon="-1.27487">
        <ele>50.1259766</ele>
        <time>2011-11-20T10:34:19Z</time>
      </trkpt>
      <trkpt lat="47.2969" lon="-1.27521">
        <ele>50.6065674</ele>
        <time>2011-11-20T10:34:24Z</time>
      </trkpt>
      <trkpt lat="47.29702" lon="-1.27548">
        <ele>52.048584</ele>
        <time>2011-11-20T10:34:28Z</time>
      </trkpt>
      <trkpt lat="47.29721" lon="-1.27569">
        <ele>52.5291748</ele>
        <time>2011-11-20T10:34:33Z</time>
      </trkpt>
      <trkpt lat="47.29774" lon="-1.276">
        <ele>54.4517822</ele>
        <time>2011-11-20T10:34:47Z</time>
      </trkpt>
      <trkpt lat="47.29785" lon="-1.27624">
        <ele>54.932373</ele>
        <time>2011-11-20T10:34:52Z</time>
      </trkpt>
      <trkpt lat="47.29787" lon="-1.27666">
        <ele>55.4130859</ele>
        <time>2011-11-20T10:34:59Z</time>
      </trkpt>
      <trkpt lat="47.29775" lon="-1.27699">
        <ele>54.932373</ele>
        <time>2011-11-20T10:35:05Z</time>
      </trkpt>
      <trkpt lat="47.29697" lon="-1.27774">
        <ele>53.4904785</ele>
        <time>2011-11-20T10:35:24Z</time>
      </trkpt>
      <trkpt lat="47.29597" lon="-1.2786">
        <ele>53.4904785</ele>
        <time>2011-11-20T10:35:47Z</time>
      </trkpt>
      <trkpt lat="47.2958" lon="-1.27871">
        <ele>51.5678711</ele>
        <time>2011-11-20T10:35:51Z</time>
      </trkpt>
      <trkpt lat="47.29555" lon="-1.27874">
        <ele>47.7225342</ele>
        <time>2011-11-20T10:35:56Z</time>
      </trkpt>
      <trkpt lat="47.29549" lon="-1.27876">
        <ele>47.7225342</ele>
        <time>2011-11-20T10:35:57Z</time>
      </trkpt>
      <trkpt lat="47.29538" lon="-1.27888">
        <ele>44.3580322</ele>
        <time>2011-11-20T10:36:00Z</time>
      </trkpt>
      <trkpt lat="47.29532" lon="-1.27905">
        <ele>42.4354248</ele>
        <time>2011-11-20T10:36:03Z</time>
      </trkpt>
      <trkpt lat="47.2953" lon="-1.27917">
        <ele>37.1480713</ele>
        <time>2011-11-20T10:36:05Z</time>
      </trkpt>
      <trkpt lat="47.29529" lon="-1.27933">
        <ele>34.2641602</ele>
        <time>2011-11-20T10:36:08Z</time>
      </trkpt>
      <trkpt lat="47.29529" lon="-1.27942">
        <ele>31.380127</ele>
        <time>2011-11-20T10:36:10Z</time>
      </trkpt>
      <trkpt lat="47.29529" lon="-1.27951">
        <ele>27.5349121</ele>
        <time>2011-11-20T10:36:12Z</time>
      </trkpt>
      <trkpt lat="47.29525" lon="-1.27959">
        <ele>26.0928955</ele>
        <time>2011-11-20T10:36:15Z</time>
      </trkpt>
      <trkpt lat="47.29524" lon="-1.27961">
        <ele>24.651001</ele>
        <time>2011-11-20T10:36:16Z</time>
      </trkpt>
      <trkpt lat="47.29517" lon="-1.27965">
        <ele>21.286377</ele>
        <time>2011-11-20T10:36:19Z</time>
      </trkpt>
      <trkpt lat="47.29512" lon="-1.27976">
        <ele>19.3637695</ele>
        <time>2011-11-20T10:36:22Z</time>
      </trkpt>
      <trkpt lat="47.29511" lon="-1.27983">
        <ele>16.9604492</ele>
        <time>2011-11-20T10:36:24Z</time>
      </trkpt>
      <trkpt lat="47.29511" lon="-1.27992">
        <ele>12.6343994</ele>
        <time>2011-11-20T10:36:26Z</time>
      </trkpt>
      <trkpt lat="47.29512" lon="-1.27997">
        <ele>12.6343994</ele>
        <time>2011-11-20T10:36:27Z</time>
      </trkpt>
      <trkpt lat="47.29516" lon="-1.28007">
        <ele>10.2312012</ele>
        <time>2011-11-20T10:36:29Z</time>
      </trkpt>
      <trkpt lat="47.29522" lon="-1.28017">
        <ele>8.3085938</ele>
        <time>2011-11-20T10:36:31Z</time>
      </trkpt>
      <trkpt lat="47.29529" lon="-1.28027">
        <ele>6.8664551</ele>
        <time>2011-11-20T10:36:33Z</time>
      </trkpt>
      <trkpt lat="47.29555" lon="-1.28063">
        <ele>7.347168</ele>
        <time>2011-11-20T10:36:45Z</time>
      </trkpt>
      <trkpt lat="47.29578" lon="-1.28085">
        <ele>6.3858643</ele>
        <time>2011-11-20T10:36:55Z</time>
      </trkpt>
      <trkpt lat="47.296" lon="-1.28143">
        <ele>6.8664551</ele>
        <time>2011-11-20T10:37:09Z</time>
      </trkpt>
      <trkpt lat="47.29618" lon="-1.28217">
        <ele>7.347168</ele>
        <time>2011-11-20T10:37:25Z</time>
      </trkpt>
      <trkpt lat="47.29614" lon="-1.28296">
        <ele>6.8664551</ele>
        <time>2011-11-20T10:37:39Z</time>
      </trkpt>
      <trkpt lat="47.296" lon="-1.28354">
        <ele>6.3858643</ele>
        <time>2011-11-20T10:37:50Z</time>
      </trkpt>
      <trkpt lat="47.296" lon="-1.28404">
        <ele>8.3085938</ele>
        <time>2011-11-20T10:38:03Z</time>
      </trkpt>
      <trkpt lat="47.29601" lon="-1.28414">
        <ele>8.7891846</ele>
        <time>2011-11-20T10:38:06Z</time>
      </trkpt>
      <trkpt lat="47.29608" lon="-1.2843">
        <ele>11.1925049</ele>
        <time>2011-11-20T10:38:12Z</time>
      </trkpt>
      <trkpt lat="47.29608" lon="-1.28432">
        <ele>11.6732178</ele>
        <time>2011-11-20T10:38:13Z</time>
      </trkpt>
      <trkpt lat="47.29622" lon="-1.28444">
        <ele>14.076416</ele>
        <time>2011-11-20T10:38:25Z</time>
      </trkpt>
      <trkpt lat="47.29645" lon="-1.2845">
        <ele>16.4797363</ele>
        <time>2011-11-20T10:38:42Z</time>
      </trkpt>
      <trkpt lat="47.29676" lon="-1.28439">
        <ele>19.8443604</ele>
        <time>2011-11-20T10:39:02Z</time>
      </trkpt>
      <trkpt lat="47.297" lon="-1.28419">
        <ele>20.8056641</ele>
        <time>2011-11-20T10:39:18Z</time>
      </trkpt>
      <trkpt lat="47.29723" lon="-1.28378">
        <ele>23.6895752</ele>
        <time>2011-11-20T10:39:40Z</time>
      </trkpt>
      <trkpt lat="47.29729" lon="-1.28368">
        <ele>24.1702881</ele>
        <time>2011-11-20T10:39:45Z</time>
      </trkpt>
      <trkpt lat="47.29736" lon="-1.28362">
        <ele>24.651001</ele>
        <time>2011-11-20T10:39:50Z</time>
      </trkpt>
      <trkpt lat="47.29759" lon="-1.28326">
        <ele>28.4962158</ele>
        <time>2011-11-20T10:40:11Z</time>
      </trkpt>
      <trkpt lat="47.29773" lon="-1.28309">
        <ele>30.4188232</ele>
        <time>2011-11-20T10:40:22Z</time>
      </trkpt>
      <trkpt lat="47.29778" lon="-1.28299">
        <ele>30.8995361</ele>
        <time>2011-11-20T10:40:28Z</time>
      </trkpt>
      <trkpt lat="47.29778" lon="-1.28294">
        <ele>31.8607178</ele>
        <time>2011-11-20T10:40:31Z</time>
      </trkpt>
      <trkpt lat="47.29791" lon="-1.28258">
        <ele>34.2641602</ele>
        <time>2011-11-20T10:40:48Z</time>
      </trkpt>
      <trkpt lat="47.29793" lon="-1.28252">
        <ele>34.744873</ele>
        <time>2011-11-20T10:40:52Z</time>
      </trkpt>
      <trkpt lat="47.29804" lon="-1.2826">
        <ele>34.744873</ele>
        <time>2011-11-20T10:40:58Z</time>
      </trkpt>
      <trkpt lat="47.29812" lon="-1.28279">
        <ele>32.3415527</ele>
        <time>2011-11-20T10:41:01Z</time>
      </trkpt>
      <trkpt lat="47.29822" lon="-1.28301">
        <ele>30.4188232</ele>
        <time>2011-11-20T10:41:04Z</time>
      </trkpt>
      <trkpt lat="47.29836" lon="-1.2833">
        <ele>28.0155029</ele>
        <time>2011-11-20T10:41:08Z</time>
      </trkpt>
      <trkpt lat="47.29845" lon="-1.28346">
        <ele>24.651001</ele>
        <time>2011-11-20T10:41:10Z</time>
      </trkpt>
      <trkpt lat="47.29849" lon="-1.28355">
        <ele>24.651001</ele>
        <time>2011-11-20T10:41:11Z</time>
      </trkpt>
      <trkpt lat="47.29875" lon="-1.28404">
        <ele>22.7282715</ele>
        <time>2011-11-20T10:41:19Z</time>
      </trkpt>
      <trkpt lat="47.29884" lon="-1.28405">
        <ele>20.8056641</ele>
        <time>2011-11-20T10:41:22Z</time>
      </trkpt>
      <trkpt lat="47.29888" lon="-1.28402">
        <ele>19.3637695</ele>
        <time>2011-11-20T10:41:23Z</time>
      </trkpt>
      <trkpt lat="47.29896" lon="-1.28395">
        <ele>18.4023438</ele>
        <time>2011-11-20T10:41:25Z</time>
      </trkpt>
      <trkpt lat="47.29905" lon="-1.2839">
        <ele>20.8056641</ele>
        <time>2011-11-20T10:41:32Z</time>
      </trkpt>
      <trkpt lat="47.29914" lon="-1.28384">
        <ele>20.8056641</ele>
        <time>2011-11-20T10:42:12Z</time>
      </trkpt>
      <trkpt lat="47.2996" lon="-1.28357">
        <ele>21.286377</ele>
        <time>2011-11-20T10:42:27Z</time>
      </trkpt>
      <trkpt lat="47.29982" lon="-1.28345">
        <ele>21.286377</ele>
        <time>2011-11-20T10:42:34Z</time>
      </trkpt>
      <trkpt lat="47.29998" lon="-1.28375">
        <ele>18.8830566</ele>
        <time>2011-11-20T10:42:41Z</time>
      </trkpt>
      <trkpt lat="47.30005" lon="-1.28385">
        <ele>15.0377197</ele>
        <time>2011-11-20T10:42:43Z</time>
      </trkpt>
      <trkpt lat="47.30011" lon="-1.28409">
        <ele>13.1151123</ele>
        <time>2011-11-20T10:42:48Z</time>
      </trkpt>
      <trkpt lat="47.29987" lon="-1.28445">
        <ele>10.711792</ele>
        <time>2011-11-20T10:42:56Z</time>
      </trkpt>
      <trkpt lat="47.29957" lon="-1.28477">
        <ele>9.2698975</ele>
        <time>2011-11-20T10:43:04Z</time>
      </trkpt>
      <trkpt lat="47.29927" lon="-1.28502">
        <ele>8.7891846</ele>
        <time>2011-11-20T10:43:11Z</time>
      </trkpt>
      <trkpt lat="47.29911" lon="-1.28518">
        <ele>8.7891846</ele>
        <time>2011-11-20T10:43:15Z</time>
      </trkpt>
      <trkpt lat="47.29903" lon="-1.28525">
        <ele>8.7891846</ele>
        <time>2011-11-20T10:43:17Z</time>
      </trkpt>
      <trkpt lat="47.29885" lon="-1.28544">
        <ele>8.7891846</ele>
        <time>2011-11-20T10:43:22Z</time>
      </trkpt>
      <trkpt lat="47.29885" lon="-1.28554">
        <ele>10.2312012</ele>
        <time>2011-11-20T10:43:25Z</time>
      </trkpt>
      <trkpt lat="47.29892" lon="-1.28552">
        <ele>10.2312012</ele>
        <time>2011-11-20T10:43:28Z</time>
      </trkpt>
      <trkpt lat="47.29934" lon="-1.28526">
        <ele>13.1151123</ele>
        <time>2011-11-20T10:43:46Z</time>
      </trkpt>
      <trkpt lat="47.29963" lon="-1.28504">
        <ele>15.9990234</ele>
        <time>2011-11-20T10:44:00Z</time>
      </trkpt>
      <trkpt lat="47.30007" lon="-1.28473">
        <ele>18.8830566</ele>
        <time>2011-11-20T10:44:20Z</time>
      </trkpt>
      <trkpt lat="47.30045" lon="-1.28438">
        <ele>22.2475586</ele>
        <time>2011-11-20T10:44:38Z</time>
      </trkpt>
      <trkpt lat="47.30076" lon="-1.28389">
        <ele>25.1317139</ele>
        <time>2011-11-20T10:44:56Z</time>
      </trkpt>
      <trkpt lat="47.30097" lon="-1.28353">
        <ele>27.5349121</ele>
        <time>2011-11-20T10:45:12Z</time>
      </trkpt>
      <trkpt lat="47.30124" lon="-1.28307">
        <ele>29.4575195</ele>
        <time>2011-11-20T10:45:30Z</time>
      </trkpt>
      <trkpt lat="47.30156" lon="-1.28308">
        <ele>32.8222656</ele>
        <time>2011-11-20T10:45:45Z</time>
      </trkpt>
      <trkpt lat="47.30193" lon="-1.28305">
        <ele>34.744873</ele>
        <time>2011-11-20T10:46:02Z</time>
      </trkpt>
      <trkpt lat="47.30237" lon="-1.28292">
        <ele>38.109375</ele>
        <time>2011-11-20T10:46:23Z</time>
      </trkpt>
      <trkpt lat="47.30283" lon="-1.28298">
        <ele>41.473999</ele>
        <time>2011-11-20T10:46:43Z</time>
      </trkpt>
      <trkpt lat="47.30333" lon="-1.28305">
        <ele>44.838623</ele>
        <time>2011-11-20T10:47:04Z</time>
      </trkpt>
      <trkpt lat="47.30369" lon="-1.2833">
        <ele>46.7612305</ele>
        <time>2011-11-20T10:47:23Z</time>
      </trkpt>
      <trkpt lat="47.30405" lon="-1.28376">
        <ele>48.68396</ele>
        <time>2011-11-20T10:47:42Z</time>
      </trkpt>
      <trkpt lat="47.30414" lon="-1.28387">
        <ele>48.68396</ele>
        <time>2011-11-20T10:47:46Z</time>
      </trkpt>
      <trkpt lat="47.30411" lon="-1.28417">
        <ele>48.68396</ele>
        <time>2011-11-20T10:47:54Z</time>
      </trkpt>
      <trkpt lat="47.3037" lon="-1.2848">
        <ele>48.2033691</ele>
        <time>2011-11-20T10:48:12Z</time>
      </trkpt>
      <trkpt lat="47.30321" lon="-1.28573">
        <ele>47.2418213</ele>
        <time>2011-11-20T10:48:31Z</time>
      </trkpt>
      <trkpt lat="47.30234" lon="-1.28733">
        <ele>44.838623</ele>
        <time>2011-11-20T10:48:57Z</time>
      </trkpt>
      <trkpt lat="47.30178" lon="-1.28825">
        <ele>41.473999</ele>
        <time>2011-11-20T10:49:12Z</time>
      </trkpt>
      <trkpt lat="47.30174" lon="-1.28832">
        <ele>41.473999</ele>
        <time>2011-11-20T10:49:13Z</time>
      </trkpt>
      <trkpt lat="47.3017" lon="-1.2884">
        <ele>41.473999</ele>
        <time>2011-11-20T10:49:14Z</time>
      </trkpt>
      <trkpt lat="47.3014" lon="-1.28901">
        <ele>39.0706787</ele>
        <time>2011-11-20T10:49:23Z</time>
      </trkpt>
      <trkpt lat="47.30136" lon="-1.28907">
        <ele>39.0706787</ele>
        <time>2011-11-20T10:49:24Z</time>
      </trkpt>
      <trkpt lat="47.30122" lon="-1.28927">
        <ele>38.109375</ele>
        <time>2011-11-20T10:49:28Z</time>
      </trkpt>
      <trkpt lat="47.30109" lon="-1.28948">
        <ele>37.1480713</ele>
        <time>2011-11-20T10:49:32Z</time>
      </trkpt>
      <trkpt lat="47.30098" lon="-1.28965">
        <ele>37.6286621</ele>
        <time>2011-11-20T10:49:35Z</time>
      </trkpt>
      <trkpt lat="47.30087" lon="-1.29011">
        <ele>33.7834473</ele>
        <time>2011-11-20T10:49:43Z</time>
      </trkpt>
      <trkpt lat="47.30086" lon="-1.29017">
        <ele>33.7834473</ele>
        <time>2011-11-20T10:49:44Z</time>
      </trkpt>
      <trkpt lat="47.30082" lon="-1.29029">
        <ele>33.7834473</ele>
        <time>2011-11-20T10:49:53Z</time>
      </trkpt>
      <trkpt lat="47.30082" lon="-1.29031">
        <ele>33.3028564</ele>
        <time>2011-11-20T10:49:59Z</time>
      </trkpt>
      <trkpt lat="47.30083" lon="-1.2908">
        <ele>29.4575195</ele>
        <time>2011-11-20T10:50:10Z</time>
      </trkpt>
      <trkpt lat="47.30085" lon="-1.29104">
        <ele>27.0543213</ele>
        <time>2011-11-20T10:50:14Z</time>
      </trkpt>
      <trkpt lat="47.30085" lon="-1.29117">
        <ele>25.6123047</ele>
        <time>2011-11-20T10:50:16Z</time>
      </trkpt>
      <trkpt lat="47.30084" lon="-1.29129">
        <ele>22.2475586</ele>
        <time>2011-11-20T10:50:19Z</time>
      </trkpt>
      <trkpt lat="47.30084" lon="-1.29134">
        <ele>20.8056641</ele>
        <time>2011-11-20T10:50:20Z</time>
      </trkpt>
      <trkpt lat="47.3008" lon="-1.29152">
        <ele>19.8443604</ele>
        <time>2011-11-20T10:50:23Z</time>
      </trkpt>
      <trkpt lat="47.30079" lon="-1.29168">
        <ele>18.4023438</ele>
        <time>2011-11-20T10:50:25Z</time>
      </trkpt>
      <trkpt lat="47.30081" lon="-1.29197">
        <ele>15.9990234</ele>
        <time>2011-11-20T10:50:28Z</time>
      </trkpt>
      <trkpt lat="47.30082" lon="-1.29206">
        <ele>13.5958252</ele>
        <time>2011-11-20T10:50:29Z</time>
      </trkpt>
      <trkpt lat="47.30093" lon="-1.29246">
        <ele>12.1538086</ele>
        <time>2011-11-20T10:50:34Z</time>
      </trkpt>
      <trkpt lat="47.30107" lon="-1.29259">
        <ele>12.1538086</ele>
        <time>2011-11-20T10:50:42Z</time>
      </trkpt>
      <trkpt lat="47.30108" lon="-1.29259">
        <ele>11.6732178</ele>
        <time>2011-11-20T10:50:43Z</time>
      </trkpt>
      <trkpt lat="47.30113" lon="-1.29256">
        <ele>12.1538086</ele>
        <time>2011-11-20T10:50:47Z</time>
      </trkpt>
      <trkpt lat="47.3013" lon="-1.29245">
        <ele>8.3085938</ele>
        <time>2011-11-20T10:50:51Z</time>
      </trkpt>
      <trkpt lat="47.30138" lon="-1.29235">
        <ele>8.7891846</ele>
        <time>2011-11-20T10:50:54Z</time>
      </trkpt>
      <trkpt lat="47.30144" lon="-1.29233">
        <ele>10.711792</ele>
        <time>2011-11-20T10:50:58Z</time>
      </trkpt>
      <trkpt lat="47.30148" lon="-1.29237">
        <ele>10.2312012</ele>
        <time>2011-11-20T10:51:11Z</time>
      </trkpt>
      <trkpt lat="47.30153" lon="-1.29236">
        <ele>10.2312012</ele>
        <time>2011-11-20T10:51:15Z</time>
      </trkpt>
      <trkpt lat="47.30186" lon="-1.29195">
        <ele>10.2312012</ele>
        <time>2011-11-20T10:51:29Z</time>
      </trkpt>
      <trkpt lat="47.30247" lon="-1.29132">
        <ele>12.6343994</ele>
        <time>2011-11-20T10:51:51Z</time>
      </trkpt>
      <trkpt lat="47.30295" lon="-1.29085">
        <ele>14.076416</ele>
        <time>2011-11-20T10:52:09Z</time>
      </trkpt>
      <trkpt lat="47.30327" lon="-1.29073">
        <ele>16.4797363</ele>
        <time>2011-11-20T10:52:22Z</time>
      </trkpt>
      <trkpt lat="47.30349" lon="-1.29074">
        <ele>19.8443604</ele>
        <time>2011-11-20T10:52:35Z</time>
      </trkpt>
      <trkpt lat="47.30359" lon="-1.29072">
        <ele>21.286377</ele>
        <time>2011-11-20T10:52:41Z</time>
      </trkpt>
      <trkpt lat="47.30393" lon="-1.29049">
        <ele>23.2089844</ele>
        <time>2011-11-20T10:53:02Z</time>
      </trkpt>
      <trkpt lat="47.30419" lon="-1.29007">
        <ele>25.1317139</ele>
        <time>2011-11-20T10:53:24Z</time>
      </trkpt>
      <trkpt lat="47.30439" lon="-1.28964">
        <ele>28.0155029</ele>
        <time>2011-11-20T10:53:44Z</time>
      </trkpt>
      <trkpt lat="47.30466" lon="-1.28955">
        <ele>29.9381104</ele>
        <time>2011-11-20T10:54:02Z</time>
      </trkpt>
      <trkpt lat="47.30486" lon="-1.2895">
        <ele>32.8222656</ele>
        <time>2011-11-20T10:54:16Z</time>
      </trkpt>
      <trkpt lat="47.30498" lon="-1.28942">
        <ele>34.744873</ele>
        <time>2011-11-20T10:54:26Z</time>
      </trkpt>
      <trkpt lat="47.30515" lon="-1.28937">
        <ele>37.1480713</ele>
        <time>2011-11-20T10:54:43Z</time>
      </trkpt>
      <trkpt lat="47.30516" lon="-1.28936">
        <ele>37.6286621</ele>
        <time>2011-11-20T10:54:45Z</time>
      </trkpt>
      <trkpt lat="47.30529" lon="-1.28925">
        <ele>39.5512695</ele>
        <time>2011-11-20T10:55:31Z</time>
      </trkpt>
      <trkpt lat="47.30546" lon="-1.28896">
        <ele>40.9934082</ele>
        <time>2011-11-20T10:55:56Z</time>
      </trkpt>
      <trkpt lat="47.30565" lon="-1.28867">
        <ele>42.9160156</ele>
        <time>2011-11-20T10:56:20Z</time>
      </trkpt>
      <trkpt lat="47.3058" lon="-1.28851">
        <ele>45.3192139</ele>
        <time>2011-11-20T10:56:39Z</time>
      </trkpt>
      <trkpt lat="47.30604" lon="-1.28838">
        <ele>47.2418213</ele>
        <time>2011-11-20T10:57:02Z</time>
      </trkpt>
      <trkpt lat="47.30629" lon="-1.28822">
        <ele>48.68396</ele>
        <time>2011-11-20T10:57:27Z</time>
      </trkpt>
      <trkpt lat="47.30647" lon="-1.28824">
        <ele>49.6452637</ele>
        <time>2011-11-20T10:57:42Z</time>
      </trkpt>
      <trkpt lat="47.30652" lon="-1.28824">
        <ele>50.6065674</ele>
        <time>2011-11-20T10:57:45Z</time>
      </trkpt>
      <trkpt lat="47.30683" lon="-1.28803">
        <ele>49.6452637</ele>
        <time>2011-11-20T10:58:00Z</time>
      </trkpt>
      <trkpt lat="47.30737" lon="-1.28768">
        <ele>51.0871582</ele>
        <time>2011-11-20T10:58:22Z</time>
      </trkpt>
      <trkpt lat="47.30792" lon="-1.28732">
        <ele>53.9711914</ele>
        <time>2011-11-20T10:58:45Z</time>
      </trkpt>
      <trkpt lat="47.30839" lon="-1.28678">
        <ele>54.932373</ele>
        <time>2011-11-20T10:59:07Z</time>
      </trkpt>
      <trkpt lat="47.30878" lon="-1.28612">
        <ele>55.8937988</ele>
        <time>2011-11-20T10:59:30Z</time>
      </trkpt>
      <trkpt lat="47.30903" lon="-1.28547">
        <ele>54.932373</ele>
        <time>2011-11-20T10:59:49Z</time>
      </trkpt>
      <trkpt lat="47.30914" lon="-1.28554">
        <ele>55.8937988</ele>
        <time>2011-11-20T10:59:55Z</time>
      </trkpt>
      <trkpt lat="47.30915" lon="-1.28559">
        <ele>55.4130859</ele>
        <time>2011-11-20T11:00:14Z</time>
      </trkpt>
      <trkpt lat="47.30915" lon="-1.28559">
        <ele>56.8551025</ele>
        <time>2011-11-20T11:02:53Z</time>
      </trkpt>
      <trkpt lat="47.30916" lon="-1.28558">
        <ele>56.3745117</ele>
        <time>2011-11-20T11:02:56Z</time>
      </trkpt>
      <trkpt lat="47.30919" lon="-1.28555">
        <ele>56.8551025</ele>
        <time>2011-11-20T11:03:06Z</time>
      </trkpt>
      <trkpt lat="47.30921" lon="-1.28561">
        <ele>56.8551025</ele>
        <time>2011-11-20T11:03:11Z</time>
      </trkpt>
      <trkpt lat="47.30927" lon="-1.28562">
        <ele>56.3745117</ele>
        <time>2011-11-20T11:03:15Z</time>
      </trkpt>
      <trkpt lat="47.30936" lon="-1.28578">
        <ele>57.3358154</ele>
        <time>2011-11-20T11:03:20Z</time>
      </trkpt>
      <trkpt lat="47.3094" lon="-1.28593">
        <ele>56.8551025</ele>
        <time>2011-11-20T11:03:23Z</time>
      </trkpt>
      <trkpt lat="47.30953" lon="-1.286">
        <ele>56.3745117</ele>
        <time>2011-11-20T11:03:27Z</time>
      </trkpt>
      <trkpt lat="47.31002" lon="-1.28617">
        <ele>56.8551025</ele>
        <time>2011-11-20T11:03:41Z</time>
      </trkpt>
      <trkpt lat="47.3108" lon="-1.28718">
        <ele>57.8165283</ele>
        <time>2011-11-20T11:04:03Z</time>
      </trkpt>
      <trkpt lat="47.31085" lon="-1.28727">
        <ele>58.2971191</ele>
        <time>2011-11-20T11:04:05Z</time>
      </trkpt>
      <trkpt lat="47.31114" lon="-1.28734">
        <ele>57.8165283</ele>
        <time>2011-11-20T11:04:12Z</time>
      </trkpt>
      <trkpt lat="47.31234" lon="-1.28678">
        <ele>59.7391357</ele>
        <time>2011-11-20T11:04:40Z</time>
      </trkpt>
      <trkpt lat="47.31307" lon="-1.28647">
        <ele>63.1036377</ele>
        <time>2011-11-20T11:05:00Z</time>
      </trkpt>
      <trkpt lat="47.31378" lon="-1.28615">
        <ele>64.5456543</ele>
        <time>2011-11-20T11:05:22Z</time>
      </trkpt>
      <trkpt lat="47.31439" lon="-1.28588">
        <ele>66.9489746</ele>
        <time>2011-11-20T11:05:41Z</time>
      </trkpt>
      <trkpt lat="47.31508" lon="-1.28555">
        <ele>68.871582</ele>
        <time>2011-11-20T11:06:04Z</time>
      </trkpt>
      <trkpt lat="47.31582" lon="-1.28519">
        <ele>70.7941895</ele>
        <time>2011-11-20T11:06:28Z</time>
      </trkpt>
      <trkpt lat="47.3159" lon="-1.28513">
        <ele>69.3522949</ele>
        <time>2011-11-20T11:06:30Z</time>
      </trkpt>
      <trkpt lat="47.31596" lon="-1.2851">
        <ele>72.2362061</ele>
        <time>2011-11-20T11:06:32Z</time>
      </trkpt>
      <trkpt lat="47.31603" lon="-1.28509">
        <ele>70.3134766</ele>
        <time>2011-11-20T11:06:34Z</time>
      </trkpt>
      <trkpt lat="47.31667" lon="-1.28487">
        <ele>72.7169189</ele>
        <time>2011-11-20T11:06:56Z</time>
      </trkpt>
      <trkpt lat="47.31668" lon="-1.28488">
        <ele>72.7169189</ele>
        <time>2011-11-20T11:07:03Z</time>
      </trkpt>
      <trkpt lat="47.31668" lon="-1.28498">
        <ele>72.2362061</ele>
        <time>2011-11-20T11:07:07Z</time>
      </trkpt>
      <trkpt lat="47.31651" lon="-1.28583">
        <ele>70.7941895</ele>
        <time>2011-11-20T11:07:21Z</time>
      </trkpt>
      <trkpt lat="47.31637" lon="-1.28704">
        <ele>69.3522949</ele>
        <time>2011-11-20T11:07:36Z</time>
      </trkpt>
      <trkpt lat="47.3166" lon="-1.2881">
        <ele>65.0263672</ele>
        <time>2011-11-20T11:07:48Z</time>
      </trkpt>
      <trkpt lat="47.31685" lon="-1.28862">
        <ele>64.5456543</ele>
        <time>2011-11-20T11:07:55Z</time>
      </trkpt>
      <trkpt lat="47.31693" lon="-1.28896">
        <ele>63.5843506</ele>
        <time>2011-11-20T11:07:59Z</time>
      </trkpt>
      <trkpt lat="47.3169" lon="-1.29006">
        <ele>61.1810303</ele>
        <time>2011-11-20T11:08:10Z</time>
      </trkpt>
      <trkpt lat="47.31686" lon="-1.2904">
        <ele>59.7391357</ele>
        <time>2011-11-20T11:08:13Z</time>
      </trkpt>
      <trkpt lat="47.31671" lon="-1.29226">
        <ele>56.8551025</ele>
        <time>2011-11-20T11:08:31Z</time>
      </trkpt>
      <trkpt lat="47.31666" lon="-1.29253">
        <ele>57.3358154</ele>
        <time>2011-11-20T11:08:34Z</time>
      </trkpt>
      <trkpt lat="47.31606" lon="-1.29383">
        <ele>56.3745117</ele>
        <time>2011-11-20T11:08:50Z</time>
      </trkpt>
      <trkpt lat="47.31602" lon="-1.29391">
        <ele>56.3745117</ele>
        <time>2011-11-20T11:08:51Z</time>
      </trkpt>
      <trkpt lat="47.31592" lon="-1.29415">
        <ele>55.4130859</ele>
        <time>2011-11-20T11:08:54Z</time>
      </trkpt>
      <trkpt lat="47.31531" lon="-1.29558">
        <ele>56.3745117</ele>
        <time>2011-11-20T11:09:12Z</time>
      </trkpt>
      <trkpt lat="47.31475" lon="-1.29674">
        <ele>55.8937988</ele>
        <time>2011-11-20T11:09:27Z</time>
      </trkpt>
      <trkpt lat="47.31475" lon="-1.29745">
        <ele>54.932373</ele>
        <time>2011-11-20T11:09:34Z</time>
      </trkpt>
      <trkpt lat="47.31488" lon="-1.29783">
        <ele>53.9711914</ele>
        <time>2011-11-20T11:09:38Z</time>
      </trkpt>
      <trkpt lat="47.31545" lon="-1.29976">
        <ele>52.048584</ele>
        <time>2011-11-20T11:09:59Z</time>
      </trkpt>
      <trkpt lat="47.31549" lon="-1.30055">
        <ele>52.048584</ele>
        <time>2011-11-20T11:10:08Z</time>
      </trkpt>
      <trkpt lat="47.31545" lon="-1.30079">
        <ele>53.4904785</ele>
        <time>2011-11-20T11:10:11Z</time>
      </trkpt>
      <trkpt lat="47.31531" lon="-1.30125">
        <ele>54.4517822</ele>
        <time>2011-11-20T11:10:18Z</time>
      </trkpt>
      <trkpt lat="47.31528" lon="-1.30159">
        <ele>55.4130859</ele>
        <time>2011-11-20T11:10:23Z</time>
      </trkpt>
      <trkpt lat="47.31534" lon="-1.30217">
        <ele>55.8937988</ele>
        <time>2011-11-20T11:10:32Z</time>
      </trkpt>
      <trkpt lat="47.31531" lon="-1.30243">
        <ele>56.3745117</ele>
        <time>2011-11-20T11:10:36Z</time>
      </trkpt>
      <trkpt lat="47.31514" lon="-1.30309">
        <ele>56.3745117</ele>
        <time>2011-11-20T11:10:47Z</time>
      </trkpt>
      <trkpt lat="47.3151" lon="-1.30327">
        <ele>56.3745117</ele>
        <time>2011-11-20T11:10:50Z</time>
      </trkpt>
      <trkpt lat="47.31505" lon="-1.30345">
        <ele>57.3358154</ele>
        <time>2011-11-20T11:10:53Z</time>
      </trkpt>
      <trkpt lat="47.31503" lon="-1.30366">
        <ele>56.8551025</ele>
        <time>2011-11-20T11:10:56Z</time>
      </trkpt>
      <trkpt lat="47.31503" lon="-1.30386">
        <ele>56.3745117</ele>
        <time>2011-11-20T11:10:59Z</time>
      </trkpt>
      <trkpt lat="47.3151" lon="-1.30459">
        <ele>53.4904785</ele>
        <time>2011-11-20T11:11:09Z</time>
      </trkpt>
      <trkpt lat="47.31518" lon="-1.30483">
        <ele>53.4904785</ele>
        <time>2011-11-20T11:11:13Z</time>
      </trkpt>
      <trkpt lat="47.31515" lon="-1.30508">
        <ele>53.0097656</ele>
        <time>2011-11-20T11:11:17Z</time>
      </trkpt>
      <trkpt lat="47.3147" lon="-1.3064">
        <ele>49.1645508</ele>
        <time>2011-11-20T11:11:35Z</time>
      </trkpt>
      <trkpt lat="47.31457" lon="-1.30675">
        <ele>47.7225342</ele>
        <time>2011-11-20T11:11:39Z</time>
      </trkpt>
      <trkpt lat="47.31416" lon="-1.30781">
        <ele>44.838623</ele>
        <time>2011-11-20T11:11:51Z</time>
      </trkpt>
      <trkpt lat="47.31395" lon="-1.3082">
        <ele>43.8773193</ele>
        <time>2011-11-20T11:11:56Z</time>
      </trkpt>
      <trkpt lat="47.31371" lon="-1.30846">
        <ele>42.9160156</ele>
        <time>2011-11-20T11:12:00Z</time>
      </trkpt>
      <trkpt lat="47.31341" lon="-1.30857">
        <ele>41.473999</ele>
        <time>2011-11-20T11:12:04Z</time>
      </trkpt>
      <trkpt lat="47.31255" lon="-1.30848">
        <ele>37.6286621</ele>
        <time>2011-11-20T11:12:15Z</time>
      </trkpt>
      <trkpt lat="47.312" lon="-1.30889">
        <ele>35.2254639</ele>
        <time>2011-11-20T11:12:23Z</time>
      </trkpt>
      <trkpt lat="47.31193" lon="-1.30969">
        <ele>33.3028564</ele>
        <time>2011-11-20T11:12:30Z</time>
      </trkpt>
      <trkpt lat="47.31215" lon="-1.31022">
        <ele>33.3028564</ele>
        <time>2011-11-20T11:12:36Z</time>
      </trkpt>
      <trkpt lat="47.31229" lon="-1.31039">
        <ele>35.2254639</ele>
        <time>2011-11-20T11:12:39Z</time>
      </trkpt>
      <trkpt lat="47.31252" lon="-1.3107">
        <ele>37.6286621</ele>
        <time>2011-11-20T11:12:45Z</time>
      </trkpt>
      <trkpt lat="47.31262" lon="-1.31085">
        <ele>37.6286621</ele>
        <time>2011-11-20T11:12:48Z</time>
      </trkpt>
      <trkpt lat="47.31275" lon="-1.31123">
        <ele>38.5900879</ele>
        <time>2011-11-20T11:12:54Z</time>
      </trkpt>
      <trkpt lat="47.3128" lon="-1.31236">
        <ele>41.9547119</ele>
        <time>2011-11-20T11:13:13Z</time>
      </trkpt>
      <trkpt lat="47.31283" lon="-1.31357">
        <ele>44.838623</ele>
        <time>2011-11-20T11:13:38Z</time>
      </trkpt>
      <trkpt lat="47.31284" lon="-1.31459">
        <ele>46.2806396</ele>
        <time>2011-11-20T11:13:59Z</time>
      </trkpt>
      <trkpt lat="47.31287" lon="-1.31573">
        <ele>49.6452637</ele>
        <time>2011-11-20T11:14:23Z</time>
      </trkpt>
      <trkpt lat="47.31287" lon="-1.31692">
        <ele>51.5678711</ele>
        <time>2011-11-20T11:14:48Z</time>
      </trkpt>
      <trkpt lat="47.31277" lon="-1.31702">
        <ele>52.048584</ele>
        <time>2011-11-20T11:14:52Z</time>
      </trkpt>
      <trkpt lat="47.31229" lon="-1.31741">
        <ele>54.4517822</ele>
        <time>2011-11-20T11:15:10Z</time>
      </trkpt>
      <trkpt lat="47.31207" lon="-1.31763">
        <ele>55.8937988</ele>
        <time>2011-11-20T11:15:21Z</time>
      </trkpt>
      <trkpt lat="47.31197" lon="-1.31763">
        <ele>56.3745117</ele>
        <time>2011-11-20T11:15:25Z</time>
      </trkpt>
      <trkpt lat="47.31166" lon="-1.31777">
        <ele>56.8551025</ele>
        <time>2011-11-20T11:15:36Z</time>
      </trkpt>
      <trkpt lat="47.31126" lon="-1.31835">
        <ele>59.7391357</ele>
        <time>2011-11-20T11:15:50Z</time>
      </trkpt>
      <trkpt lat="47.31096" lon="-1.31896">
        <ele>60.7003174</ele>
        <time>2011-11-20T11:16:07Z</time>
      </trkpt>
      <trkpt lat="47.31101" lon="-1.31911">
        <ele>60.2197266</ele>
        <time>2011-11-20T11:16:11Z</time>
      </trkpt>
      <trkpt lat="47.31123" lon="-1.31955">
        <ele>59.7391357</ele>
        <time>2011-11-20T11:16:21Z</time>
      </trkpt>
      <trkpt lat="47.31132" lon="-1.31972">
        <ele>59.7391357</ele>
        <time>2011-11-20T11:16:25Z</time>
      </trkpt>
      <trkpt lat="47.31151" lon="-1.32014">
        <ele>59.2584229</ele>
        <time>2011-11-20T11:16:36Z</time>
      </trkpt>
      <trkpt lat="47.31161" lon="-1.32003">
        <ele>60.2197266</ele>
        <time>2011-11-20T11:16:48Z</time>
      </trkpt>
      <trkpt lat="47.31166" lon="-1.31995">
        <ele>60.7003174</ele>
        <time>2011-11-20T11:17:09Z</time>
      </trkpt>
      <trkpt lat="47.31166" lon="-1.31992">
        <ele>61.1810303</ele>
        <time>2011-11-20T11:17:12Z</time>
      </trkpt>
    </trkseg>
  </trk>
</gpx>